Observation data for Hobbs on 08/14/2019      Previous  Date  Next       Current Mesonet Observations  Soil Data  Daily Summary Page  Observations in Plain Language
KHO1 140500Z 08005KT 28/16 A3015 RMK A01 T02780155  RH  047%=      5-min Rain = 0
KHO1 140501Z 08006KT 28/16 A3015 RMK A01 T02780155  RH  047%=      5-min Rain = 0
KHO1 140502Z 08006KT 28/16 A3015 RMK A01 T02780155  RH  047%=      5-min Rain = 0
KHO1 140503Z 08006KT 28/16 A3015 RMK A01 T02780155  RH  047%=      5-min Rain = 0
KHO1 140504Z 07005KT 28/16 A3015 RMK A01 T02780155  RH  047%=      5-min Rain = 0
KHO1 140505Z 07005KT 28/16 A3016 RMK A01 T02780155  RH  047%=      5-min Rain = 0
KHO1 140506Z 08006KT 28/16 A3015 RMK A01 T02770155  RH  047%=      5-min Rain = 0
KHO1 140507Z 08006KT 28/16 A3016 RMK A01 T02770155  RH  047%=      5-min Rain = 0
KHO1 140508Z 08005KT 28/16 A3015 RMK A01 T02770155  RH  048%=      5-min Rain = 0
KHO1 140509Z 07005KT 28/16 A3015 RMK A01 T02760155  RH  048%=      5-min Rain = 0
KHO1 140510Z 07006KT 28/16 A3015 RMK A01 T02760155  RH  048%=      5-min Rain = 0
KHO1 140511Z 07005KT 28/16 A3015 RMK A01 T02760155  RH  048%=      5-min Rain = 0
KHO1 140512Z 07005KT 28/16 A3016 RMK A01 T02760155  RH  048%=      5-min Rain = 0
KHO1 140513Z 06005KT 28/16 A3016 RMK A01 T02760155  RH  048%=      5-min Rain = 0
KHO1 140514Z 06005KT 28/16 A3016 RMK A01 T02750155  RH  048%=      5-min Rain = 0
KHO1 140515Z 07005KT 28/16 A3015 RMK A01 T02750155  RH  048%=      5-min Rain = 0
KHO1 140516Z 07005KT 28/16 A3015 RMK A01 T02750155  RH  048%=      5-min Rain = 0
KHO1 140517Z 07005KT 28/16 A3016 RMK A01 T02750155  RH  048%=      5-min Rain = 0
KHO1 140518Z 07004KT 27/16 A3016 RMK A01 T02740155  RH  048%=      5-min Rain = 0
KHO1 140519Z 07005KT 27/16 A3016 RMK A01 T02740155  RH  048%=      5-min Rain = 0
KHO1 140520Z 07005KT 27/16 A3016 RMK A01 T02740155  RH  048%=      5-min Rain = 0
KHO1 140521Z 08005KT 27/16 A3016 RMK A01 T02740155  RH  048%=      5-min Rain = 0
KHO1 140522Z 08006KT 27/16 A3016 RMK A01 T02740155  RH  048%=      5-min Rain = 0
KHO1 140523Z 08006KT 27/16 A3016 RMK A01 T02730155  RH  048%=      5-min Rain = 0
KHO1 140524Z 08005KT 27/16 A3016 RMK A01 T02730155  RH  048%=      5-min Rain = 0
KHO1 140525Z 08005KT 27/16 A3016 RMK A01 T02730155  RH  048%=      5-min Rain = 0
KHO1 140526Z 08005KT 27/16 A3016 RMK A01 T02730155  RH  049%=      5-min Rain = 0
KHO1 140527Z 08004KT 27/16 A3016 RMK A01 T02730155  RH  049%=      5-min Rain = 0
KHO1 140528Z 07004KT 27/16 A3016 RMK A01 T02720155  RH  049%=      5-min Rain = 0
KHO1 140529Z 07004KT 27/16 A3016 RMK A01 T02720155  RH  049%=      5-min Rain = 0
KHO1 140530Z 08005KT 27/16 A3016 RMK A01 T02720155  RH  049%=      5-min Rain = 0
KHO1 140531Z 08005KT 27/16 A3016 RMK A01 T02720155  RH  049%=      5-min Rain = 0
KHO1 140532Z 08003KT 27/16 A3016 RMK A01 T02710155  RH  049%=      5-min Rain = 0
KHO1 140533Z 08004KT 27/16 A3016 RMK A01 T02710155  RH  049%=      5-min Rain = 0
KHO1 140534Z 08004KT 27/16 A3016 RMK A01 T02710155  RH  049%=      5-min Rain = 0
KHO1 140535Z 07004KT 27/16 A3016 RMK A01 T02700155  RH  049%=      5-min Rain = 0
KHO1 140536Z 07004KT 27/16 A3016 RMK A01 T02700155  RH  049%=      5-min Rain = 0
KHO1 140537Z 07004KT 27/16 A3016 RMK A01 T02700155  RH  049%=      5-min Rain = 0
KHO1 140538Z 07003KT 27/16 A3016 RMK A01 T02690155  RH  049%=      5-min Rain = 0
KHO1 140539Z 07004KT 27/16 A3016 RMK A01 T02690155  RH  050%=      5-min Rain = 0
KHO1 140540Z 07004KT 27/16 A3016 RMK A01 T02690155  RH  050%=      5-min Rain = 0
KHO1 140541Z 07004KT 27/16 A3016 RMK A01 T02680156  RH  050%=      5-min Rain = 0
KHO1 140542Z 08004KT 27/16 A3016 RMK A01 T02680156  RH  050%=      5-min Rain = 0
KHO1 140543Z 08004KT 27/16 A3016 RMK A01 T02680156  RH  050%=      5-min Rain = 0
KHO1 140544Z 08004KT 27/16 A3016 RMK A01 T02670156  RH  050%=      5-min Rain = 0
KHO1 140545Z 08004KT 27/16 A3016 RMK A01 T02670156  RH  050%=      5-min Rain = 0
KHO1 140546Z 08005KT 27/16 A3016 RMK A01 T02670156  RH  051%=      5-min Rain = 0
KHO1 140547Z 08005KT 27/16 A3016 RMK A01 T02670156  RH  051%=      5-min Rain = 0
KHO1 140548Z 09005KT 27/16 A3016 RMK A01 T02660156  RH  051%=      5-min Rain = 0
KHO1 140549Z 09005KT 27/16 A3016 RMK A01 T02660156  RH  051%=      5-min Rain = 0
KHO1 140550Z 09004KT 27/16 A3016 RMK A01 T02660156  RH  051%=      5-min Rain = 0
KHO1 140551Z 09005KT 27/16 A3016 RMK A01 T02660156  RH  051%=      5-min Rain = 0
KHO1 140552Z 08004KT 27/16 A3016 RMK A01 T02660156  RH  051%=      5-min Rain = 0
KHO1 140553Z 09005KT 27/16 A3016 RMK A01 T02660156  RH  051%=      5-min Rain = 0
KHO1 140554Z 08005KT 27/16 A3016 RMK A01 T02660156  RH  051%=      5-min Rain = 0
KHO1 140555Z 09005KT 27/16 A3016 RMK A01 T02660156  RH  051%=      5-min Rain = 0
KHO1 140556Z 09006KT 27/16 A3016 RMK A01 T02660156  RH  051%=      5-min Rain = 0
KHO1 140557Z 09006KT 27/16 A3016 RMK A01 T02660156  RH  051%=      5-min Rain = 0
KHO1 140558Z 09006KT 27/16 A3016 RMK A01 T02660156  RH  051%=      5-min Rain = 0
KHO1 140559Z 10006KT 27/16 A3016 RMK A01 T02650156  RH  051%=      5-min Rain = 0
KHO1 140600Z 10006KT 27/16 A3016 RMK A01 T02650156  RH  051%=      5-min Rain = 0
KHO1 140601Z 10007KT 27/16 A3016 RMK A01 T02650156  RH  051%=      5-min Rain = 0
KHO1 140602Z 11007KT 27/16 A3016 RMK A01 T02650156  RH  051%=      5-min Rain = 0
KHO1 140603Z 10007KT 26/16 A3016 RMK A01 T02640156  RH  051%=      5-min Rain = 0
KHO1 140604Z 10006KT 26/16 A3016 RMK A01 T02640156  RH  052%=      5-min Rain = 0
KHO1 140605Z 10006KT 26/16 A3016 RMK A01 T02640156  RH  052%=      5-min Rain = 0
KHO1 140606Z 10008KT 26/16 A3016 RMK A01 T02630156  RH  052%=      5-min Rain = 0
KHO1 140607Z 10007KT 26/16 A3016 RMK A01 T02630156  RH  052%=      5-min Rain = 0
KHO1 140608Z 09007KT 26/16 A3016 RMK A01 T02630156  RH  052%=      5-min Rain = 0
KHO1 140609Z 10007KT 26/16 A3016 RMK A01 T02630156  RH  052%=      5-min Rain = 0
KHO1 140610Z 09005KT 26/16 A3016 RMK A01 T02630156  RH  052%=      5-min Rain = 0
KHO1 140611Z 09006KT 26/16 A3016 RMK A01 T02620156  RH  052%=      5-min Rain = 0
KHO1 140612Z 09006KT 26/16 A3016 RMK A01 T02620156  RH  052%=      5-min Rain = 0
KHO1 140613Z 09006KT 26/16 A3016 RMK A01 T02620156  RH  052%=      5-min Rain = 0
KHO1 140614Z 09005KT 26/16 A3017 RMK A01 T02620156  RH  052%=      5-min Rain = 0
KHO1 140615Z 09005KT 26/16 A3017 RMK A01 T02620155  RH  052%=      5-min Rain = 0
KHO1 140616Z 08005KT 26/16 A3017 RMK A01 T02620155  RH  052%=      5-min Rain = 0
KHO1 140617Z 08004KT 26/16 A3017 RMK A01 T02620155  RH  052%=      5-min Rain = 0
KHO1 140618Z 08005KT 26/16 A3017 RMK A01 T02620155  RH  052%=      5-min Rain = 0
KHO1 140619Z 08004KT 26/16 A3017 RMK A01 T02610156  RH  052%=      5-min Rain = 0
KHO1 140620Z 08004KT 26/16 A3017 RMK A01 T02610156  RH  052%=      5-min Rain = 0
KHO1 140621Z 07004KT 26/16 A3017 RMK A01 T02610156  RH  052%=      5-min Rain = 0
KHO1 140622Z 07004KT 26/16 A3017 RMK A01 T02610156  RH  052%=      5-min Rain = 0
KHO1 140623Z 07005KT 26/16 A3017 RMK A01 T02600156  RH  053%=      5-min Rain = 0
KHO1 140624Z 07004KT 26/16 A3017 RMK A01 T02600156  RH  053%=      5-min Rain = 0
KHO1 140625Z 08005KT 26/16 A3017 RMK A01 T02600156  RH  053%=      5-min Rain = 0
KHO1 140626Z 08005KT 26/16 A3017 RMK A01 T02590156  RH  053%=      5-min Rain = 0
KHO1 140627Z 08005KT 26/16 A3017 RMK A01 T02590157  RH  053%=      5-min Rain = 0
KHO1 140628Z 07004KT 26/16 A3017 RMK A01 T02590157  RH  053%=      5-min Rain = 0
KHO1 140629Z 07005KT 26/16 A3017 RMK A01 T02590157  RH  053%=      5-min Rain = 0
KHO1 140630Z 07005KT 26/16 A3017 RMK A01 T02580157  RH  054%=      5-min Rain = 0
KHO1 140631Z 08004KT 26/16 A3017 RMK A01 T02580157  RH  054%=      5-min Rain = 0
KHO1 140632Z 08004KT 26/16 A3017 RMK A01 T02580157  RH  054%=      5-min Rain = 0
KHO1 140633Z 08005KT 26/16 A3017 RMK A01 T02580157  RH  054%=      5-min Rain = 0
KHO1 140634Z 07005KT 26/16 A3017 RMK A01 T02570157  RH  054%=      5-min Rain = 0
KHO1 140635Z 08005KT 26/16 A3017 RMK A01 T02570157  RH  054%=      5-min Rain = 0
KHO1 140636Z 08005KT 26/16 A3017 RMK A01 T02570157  RH  054%=      5-min Rain = 0
KHO1 140637Z 07004KT 26/16 A3017 RMK A01 T02570157  RH  054%=      5-min Rain = 0
KHO1 140638Z 07004KT 26/16 A3017 RMK A01 T02570157  RH  054%=      5-min Rain = 0
KHO1 140639Z 07004KT 26/16 A3017 RMK A01 T02570157  RH  054%=      5-min Rain = 0
KHO1 140640Z 08004KT 26/16 A3017 RMK A01 T02570157  RH  054%=      5-min Rain = 0
KHO1 140641Z 07005KT 26/16 A3017 RMK A01 T02570157  RH  054%=      5-min Rain = 0
KHO1 140642Z 07004KT 26/16 A3017 RMK A01 T02570157  RH  054%=      5-min Rain = 0
KHO1 140643Z 07004KT 26/16 A3017 RMK A01 T02570157  RH  054%=      5-min Rain = 0
KHO1 140644Z 07004KT 26/16 A3017 RMK A01 T02570157  RH  054%=      5-min Rain = 0
KHO1 140645Z 07004KT 26/16 A3017 RMK A01 T02570157  RH  054%=      5-min Rain = 0
KHO1 140646Z 07005KT 26/16 A3017 RMK A01 T02560157  RH  054%=      5-min Rain = 0
KHO1 140647Z 07004KT 26/16 A3017 RMK A01 T02560157  RH  054%=      5-min Rain = 0
KHO1 140648Z 07004KT 26/16 A3017 RMK A01 T02560157  RH  054%=      5-min Rain = 0
KHO1 140649Z 07004KT 26/16 A3017 RMK A01 T02560157  RH  054%=      5-min Rain = 0
KHO1 140650Z 07005KT 26/16 A3017 RMK A01 T02560157  RH  054%=      5-min Rain = 0
KHO1 140651Z 07004KT 26/16 A3017 RMK A01 T02550157  RH  055%=      5-min Rain = 0
KHO1 140652Z 07005KT 26/16 A3017 RMK A01 T02550157  RH  055%=      5-min Rain = 0
KHO1 140653Z 07005KT 26/16 A3017 RMK A01 T02550157  RH  055%=      5-min Rain = 0
KHO1 140654Z 07004KT 26/16 A3017 RMK A01 T02550157  RH  055%=      5-min Rain = 0
KHO1 140655Z 07005KT 26/16 A3017 RMK A01 T02550157  RH  055%=      5-min Rain = 0
KHO1 140656Z 07004KT 26/16 A3017 RMK A01 T02550157  RH  055%=      5-min Rain = 0
KHO1 140657Z 07004KT 26/16 A3017 RMK A01 T02550157  RH  055%=      5-min Rain = 0
KHO1 140658Z 07004KT 26/16 A3017 RMK A01 T02550157  RH  055%=      5-min Rain = 0
KHO1 140659Z 07004KT 26/16 A3017 RMK A01 T02550157  RH  055%=      5-min Rain = 0
KHO1 140700Z 07005KT 25/16 A3017 RMK A01 T02540157  RH  055%=      5-min Rain = 0
KHO1 140701Z 07005KT 26/16 A3017 RMK A01 T02550157  RH  055%=      5-min Rain = 0
KHO1 140702Z 07004KT 26/16 A3017 RMK A01 T02550157  RH  055%=      5-min Rain = 0
KHO1 140703Z 07004KT 26/16 A3017 RMK A01 T02550156  RH  054%=      5-min Rain = 0
KHO1 140704Z 06005KT 26/16 A3017 RMK A01 T02550156  RH  054%=      5-min Rain = 0
KHO1 140705Z 06005KT 26/16 A3017 RMK A01 T02550156  RH  054%=      5-min Rain = 0
KHO1 140706Z 06005KT 26/16 A3017 RMK A01 T02550156  RH  054%=      5-min Rain = 0
KHO1 140707Z 07004KT 26/16 A3017 RMK A01 T02550155  RH  054%=      5-min Rain = 0
KHO1 140708Z 06004KT 26/16 A3017 RMK A01 T02550155  RH  054%=      5-min Rain = 0
KHO1 140709Z 06005KT 26/16 A3017 RMK A01 T02550155  RH  054%=      5-min Rain = 0
KHO1 140710Z 07004KT 26/16 A3017 RMK A01 T02550155  RH  054%=      5-min Rain = 0
KHO1 140711Z 07004KT 26/16 A3017 RMK A01 T02550155  RH  054%=      5-min Rain = 0
KHO1 140712Z 07004KT 25/16 A3017 RMK A01 T02540155  RH  054%=      5-min Rain = 0
KHO1 140713Z 07004KT 25/16 A3017 RMK A01 T02540155  RH  054%=      5-min Rain = 0
KHO1 140714Z 07004KT 25/16 A3017 RMK A01 T02540155  RH  054%=      5-min Rain = 0
KHO1 140715Z 07003KT 25/16 A3017 RMK A01 T02540155  RH  054%=      5-min Rain = 0
KHO1 140716Z 07004KT 25/15 A3017 RMK A01 T02530154  RH  054%=      5-min Rain = 0
KHO1 140717Z 06003KT 25/15 A3017 RMK A01 T02530154  RH  054%=      5-min Rain = 0
KHO1 140718Z 06004KT 25/15 A3017 RMK A01 T02530154  RH  054%=      5-min Rain = 0
KHO1 140719Z 06005KT 25/15 A3017 RMK A01 T02530154  RH  054%=      5-min Rain = 0
KHO1 140720Z 06004KT 25/15 A3017 RMK A01 T02530154  RH  054%=      5-min Rain = 0
KHO1 140721Z 07004KT 25/15 A3016 RMK A01 T02540153  RH  054%=      5-min Rain = 0
KHO1 140722Z 07004KT 25/15 A3016 RMK A01 T02540153  RH  054%=      5-min Rain = 0
KHO1 140723Z 08003KT 25/15 A3016 RMK A01 T02540153  RH  054%=      5-min Rain = 0
KHO1 140724Z 08003KT 25/15 A3016 RMK A01 T02540153  RH  054%=      5-min Rain = 0
KHO1 140725Z 08004KT 25/15 A3016 RMK A01 T02540153  RH  054%=      5-min Rain = 0
KHO1 140726Z 09003KT 25/15 A3016 RMK A01 T02540153  RH  054%=      5-min Rain = 0
KHO1 140727Z 09005KT 25/15 A3016 RMK A01 T02530152  RH  054%=      5-min Rain = 0
KHO1 140728Z 10005KT 25/15 A3016 RMK A01 T02530152  RH  053%=      5-min Rain = 0
KHO1 140729Z 11005KT 25/15 A3016 RMK A01 T02540152  RH  053%=      5-min Rain = 0
KHO1 140730Z 11005KT 25/15 A3016 RMK A01 T02540152  RH  053%=      5-min Rain = 0
KHO1 140731Z 11004KT 25/15 A3016 RMK A01 T02540151  RH  053%=      5-min Rain = 0
KHO1 140732Z 10005KT 25/15 A3016 RMK A01 T02530151  RH  053%=      5-min Rain = 0
KHO1 140733Z 09004KT 25/15 A3016 RMK A01 T02530151  RH  053%=      5-min Rain = 0
KHO1 140734Z 08004KT 25/15 A3016 RMK A01 T02530151  RH  053%=      5-min Rain = 0
KHO1 140735Z 07004KT 25/15 A3016 RMK A01 T02530151  RH  053%=      5-min Rain = 0
KHO1 140736Z 07004KT 25/15 A3016 RMK A01 T02530151  RH  053%=      5-min Rain = 0
KHO1 140737Z 07004KT 25/15 A3016 RMK A01 T02530151  RH  053%=      5-min Rain = 0
KHO1 140738Z 07004KT 25/15 A3016 RMK A01 T02530151  RH  053%=      5-min Rain = 0
KHO1 140739Z 08003KT 25/15 A3016 RMK A01 T02530151  RH  053%=      5-min Rain = 0
KHO1 140740Z 08003KT 25/15 A3016 RMK A01 T02530151  RH  053%=      5-min Rain = 0
KHO1 140741Z 08003KT 25/15 A3016 RMK A01 T02520151  RH  053%=      5-min Rain = 0
KHO1 140742Z 08004KT 25/15 A3016 RMK A01 T02520151  RH  054%=      5-min Rain = 0
KHO1 140743Z 07003KT 25/15 A3016 RMK A01 T02510151  RH  054%=      5-min Rain = 0
KHO1 140744Z 07004KT 25/15 A3016 RMK A01 T02510152  RH  054%=      5-min Rain = 0
KHO1 140745Z 07004KT 25/15 A3016 RMK A01 T02510151  RH  054%=      5-min Rain = 0
KHO1 140746Z 07003KT 25/15 A3016 RMK A01 T02510151  RH  054%=      5-min Rain = 0
KHO1 140747Z 07003KT 25/15 A3016 RMK A01 T02510151  RH  054%=      5-min Rain = 0
KHO1 140748Z 07004KT 25/15 A3016 RMK A01 T02500151  RH  054%=      5-min Rain = 0
KHO1 140749Z 07004KT 25/15 A3016 RMK A01 T02500151  RH  054%=      5-min Rain = 0
KHO1 140750Z 07003KT 25/15 A3016 RMK A01 T02490151  RH  054%=      5-min Rain = 0
KHO1 140751Z 06003KT 25/15 A3016 RMK A01 T02490151  RH  054%=      5-min Rain = 0
KHO1 140752Z 07003KT 25/15 A3016 RMK A01 T02490151  RH  055%=      5-min Rain = 0
KHO1 140753Z 07003KT 25/15 A3016 RMK A01 T02490151  RH  055%=      5-min Rain = 0
KHO1 140754Z 07002KT 25/15 A3016 RMK A01 T02480151  RH  055%=      5-min Rain = 0
KHO1 140755Z 08003KT 25/15 A3016 RMK A01 T02480151  RH  055%=      5-min Rain = 0
KHO1 140756Z 08003KT 25/15 A3016 RMK A01 T02480151  RH  055%=      5-min Rain = 0
KHO1 140757Z 08003KT 25/15 A3016 RMK A01 T02470152  RH  055%=      5-min Rain = 0
KHO1 140758Z 08003KT 25/15 A3016 RMK A01 T02470152  RH  056%=      5-min Rain = 0
KHO1 140759Z 08004KT 25/15 A3016 RMK A01 T02470153  RH  056%=      5-min Rain = 0
KHO1 140800Z 07004KT 25/15 A3016 RMK A01 T02470153  RH  056%=      5-min Rain = 0
KHO1 140801Z 07004KT 25/15 A3016 RMK A01 T02470154  RH  056%=      5-min Rain = 0
KHO1 140802Z 07004KT 25/15 A3016 RMK A01 T02470154  RH  056%=      5-min Rain = 0
KHO1 140803Z 08004KT 25/15 A3016 RMK A01 T02470154  RH  056%=      5-min Rain = 0
KHO1 140804Z 08003KT 25/16 A3016 RMK A01 T02470155  RH  056%=      5-min Rain = 0
KHO1 140805Z 08004KT 25/16 A3016 RMK A01 T02470155  RH  056%=      5-min Rain = 0
KHO1 140806Z 08004KT 25/16 A3016 RMK A01 T02470156  RH  057%=      5-min Rain = 0
KHO1 140807Z 07004KT 25/16 A3016 RMK A01 T02470156  RH  057%=      5-min Rain = 0
KHO1 140808Z 07005KT 25/16 A3016 RMK A01 T02470158  RH  058%=      5-min Rain = 0
KHO1 140809Z 07005KT 25/16 A3016 RMK A01 T02470159  RH  058%=      5-min Rain = 0
KHO1 140810Z 08004KT 25/16 A3016 RMK A01 T02470159  RH  058%=      5-min Rain = 0
KHO1 140811Z 08005KT 25/16 A3016 RMK A01 T02470160  RH  058%=      5-min Rain = 0
KHO1 140812Z 08005KT 25/16 A3016 RMK A01 T02470161  RH  059%=      5-min Rain = 0
KHO1 140813Z 09005KT 25/16 A3016 RMK A01 T02470161  RH  059%=      5-min Rain = 0
KHO1 140814Z 09005KT 25/16 A3017 RMK A01 T02470161  RH  059%=      5-min Rain = 0
KHO1 140815Z 09006KT 25/16 A3017 RMK A01 T02470162  RH  059%=      5-min Rain = 0
KHO1 140816Z 09006KT 25/16 A3017 RMK A01 T02470163  RH  059%=      5-min Rain = 0
KHO1 140817Z 09006KT 25/16 A3017 RMK A01 T02470163  RH  060%=      5-min Rain = 0
KHO1 140818Z 09008KT 25/16 A3017 RMK A01 T02470164  RH  060%=      5-min Rain = 0
KHO1 140819Z 09007KT 25/16 A3016 RMK A01 T02470164  RH  060%=      5-min Rain = 0
KHO1 140820Z 09007KT 25/16 A3016 RMK A01 T02480164  RH  060%=      5-min Rain = 0
KHO1 140821Z 09006KT 25/16 A3016 RMK A01 T02480164  RH  060%=      5-min Rain = 0
KHO1 140822Z 08005KT 25/16 A3016 RMK A01 T02480164  RH  060%=      5-min Rain = 0
KHO1 140823Z 09004KT 25/17 A3016 RMK A01 T02470165  RH  060%=      5-min Rain = 0
KHO1 140824Z 08005KT 25/17 A3016 RMK A01 T02470165  RH  060%=      5-min Rain = 0
KHO1 140825Z 08005KT 25/17 A3016 RMK A01 T02470165  RH  060%=      5-min Rain = 0
KHO1 140826Z 08005KT 25/17 A3016 RMK A01 T02470166  RH  061%=      5-min Rain = 0
KHO1 140827Z 08004KT 25/17 A3016 RMK A01 T02470166  RH  061%=      5-min Rain = 0
KHO1 140828Z 08004KT 25/17 A3016 RMK A01 T02460166  RH  061%=      5-min Rain = 0
KHO1 140829Z 08005KT 25/17 A3016 RMK A01 T02460166  RH  061%=      5-min Rain = 0
KHO1 140830Z 08004KT 25/17 A3016 RMK A01 T02460166  RH  061%=      5-min Rain = 0
KHO1 140831Z 08004KT 25/17 A3016 RMK A01 T02450165  RH  061%=      5-min Rain = 0
KHO1 140832Z 08005KT 25/17 A3016 RMK A01 T02450165  RH  061%=      5-min Rain = 0
KHO1 140833Z 08005KT 25/17 A3016 RMK A01 T02450166  RH  061%=      5-min Rain = 0
KHO1 140834Z 08004KT 25/17 A3016 RMK A01 T02450166  RH  061%=      5-min Rain = 0
KHO1 140835Z 08004KT 24/17 A3016 RMK A01 T02440165  RH  061%=      5-min Rain = 0
KHO1 140836Z 09004KT 24/17 A3016 RMK A01 T02440165  RH  061%=      5-min Rain = 0
KHO1 140837Z 08004KT 24/17 A3016 RMK A01 T02440165  RH  061%=      5-min Rain = 0
KHO1 140838Z 08004KT 24/17 A3016 RMK A01 T02440165  RH  062%=      5-min Rain = 0
KHO1 140839Z 09004KT 24/17 A3016 RMK A01 T02440165  RH  062%=      5-min Rain = 0
KHO1 140840Z 09005KT 24/17 A3016 RMK A01 T02440165  RH  062%=      5-min Rain = 0
KHO1 140841Z 08004KT 24/17 A3016 RMK A01 T02430165  RH  062%=      5-min Rain = 0
KHO1 140842Z 08004KT 24/17 A3016 RMK A01 T02430165  RH  062%=      5-min Rain = 0
KHO1 140843Z 07004KT 24/17 A3016 RMK A01 T02430165  RH  062%=      5-min Rain = 0
KHO1 140844Z 08004KT 24/17 A3016 RMK A01 T02430165  RH  062%=      5-min Rain = 0
KHO1 140845Z 07004KT 24/17 A3016 RMK A01 T02430165  RH  062%=      5-min Rain = 0
KHO1 140846Z 08005KT 24/17 A3016 RMK A01 T02430165  RH  062%=      5-min Rain = 0
KHO1 140847Z 08005KT 24/17 A3016 RMK A01 T02420166  RH  062%=      5-min Rain = 0
KHO1 140848Z 08004KT 24/17 A3016 RMK A01 T02420165  RH  062%=      5-min Rain = 0
KHO1 140849Z 08005KT 24/17 A3016 RMK A01 T02420166  RH  062%=      5-min Rain = 0
KHO1 140850Z 08006KT 24/17 A3016 RMK A01 T02420166  RH  062%=      5-min Rain = 0
KHO1 140851Z 08005KT 24/17 A3016 RMK A01 T02420166  RH  063%=      5-min Rain = 0
KHO1 140852Z 08004KT 24/17 A3016 RMK A01 T02420166  RH  063%=      5-min Rain = 0
KHO1 140853Z 08005KT 24/17 A3016 RMK A01 T02410167  RH  063%=      5-min Rain = 0
KHO1 140854Z 08004KT 24/17 A3016 RMK A01 T02410167  RH  063%=      5-min Rain = 0
KHO1 140855Z 08004KT 24/17 A3016 RMK A01 T02410167  RH  063%=      5-min Rain = 0
KHO1 140856Z 08005KT 24/17 A3016 RMK A01 T02410167  RH  063%=      5-min Rain = 0
KHO1 140857Z 08004KT 24/17 A3016 RMK A01 T02410167  RH  063%=      5-min Rain = 0
KHO1 140858Z 08004KT 24/17 A3016 RMK A01 T02410167  RH  063%=      5-min Rain = 0
KHO1 140859Z 08005KT 24/17 A3016 RMK A01 T02410167  RH  064%=      5-min Rain = 0
KHO1 140900Z 08005KT 24/17 A3016 RMK A01 T02410167  RH  064%=      5-min Rain = 0
KHO1 140901Z 08005KT 24/17 A3016 RMK A01 T02400167  RH  064%=      5-min Rain = 0
KHO1 140902Z 08004KT 24/17 A3016 RMK A01 T02400167  RH  064%=      5-min Rain = 0
KHO1 140903Z 08005KT 24/17 A3016 RMK A01 T02400167  RH  064%=      5-min Rain = 0
KHO1 140904Z 08005KT 24/17 A3016 RMK A01 T02400167  RH  064%=      5-min Rain = 0
KHO1 140905Z 08005KT 24/17 A3016 RMK A01 T02400167  RH  064%=      5-min Rain = 0
KHO1 140906Z 08004KT 24/17 A3016 RMK A01 T02390167  RH  064%=      5-min Rain = 0
KHO1 140907Z 08004KT 24/17 A3015 RMK A01 T02390167  RH  064%=      5-min Rain = 0
KHO1 140908Z 08004KT 24/17 A3015 RMK A01 T02390167  RH  064%=      5-min Rain = 0
KHO1 140909Z 08004KT 24/17 A3015 RMK A01 T02390166  RH  064%=      5-min Rain = 0
KHO1 140910Z 08004KT 24/17 A3015 RMK A01 T02390166  RH  064%=      5-min Rain = 0
KHO1 140911Z 08004KT 24/17 A3015 RMK A01 T02380167  RH  064%=      5-min Rain = 0
KHO1 140912Z 07004KT 24/17 A3015 RMK A01 T02380167  RH  064%=      5-min Rain = 0
KHO1 140913Z 07004KT 24/17 A3015 RMK A01 T02380166  RH  064%=      5-min Rain = 0
KHO1 140914Z 06004KT 24/17 A3015 RMK A01 T02380166  RH  064%=      5-min Rain = 0
KHO1 140915Z 07004KT 24/17 A3015 RMK A01 T02380166  RH  064%=      5-min Rain = 0
KHO1 140916Z 06004KT 24/17 A3015 RMK A01 T02380166  RH  064%=      5-min Rain = 0
KHO1 140917Z 07005KT 24/17 A3015 RMK A01 T02380166  RH  064%=      5-min Rain = 0
KHO1 140918Z 06005KT 24/17 A3015 RMK A01 T02370166  RH  064%=      5-min Rain = 0
KHO1 140919Z 07005KT 24/17 A3015 RMK A01 T02370166  RH  064%=      5-min Rain = 0
KHO1 140920Z 07005KT 24/17 A3015 RMK A01 T02370166  RH  064%=      5-min Rain = 0
KHO1 140921Z 07005KT 24/17 A3015 RMK A01 T02370166  RH  064%=      5-min Rain = 0
KHO1 140922Z 07004KT 24/17 A3015 RMK A01 T02370166  RH  064%=      5-min Rain = 0
KHO1 140923Z 07005KT 24/17 A3015 RMK A01 T02360166  RH  065%=      5-min Rain = 0
KHO1 140924Z 07005KT 24/17 A3015 RMK A01 T02360166  RH  065%=      5-min Rain = 0
KHO1 140925Z 07005KT 24/17 A3015 RMK A01 T02360166  RH  065%=      5-min Rain = 0
KHO1 140926Z 07005KT 24/17 A3015 RMK A01 T02360166  RH  065%=      5-min Rain = 0
KHO1 140927Z 07004KT 24/17 A3016 RMK A01 T02360166  RH  065%=      5-min Rain = 0
KHO1 140928Z 07004KT 24/17 A3016 RMK A01 T02360166  RH  065%=      5-min Rain = 0
KHO1 140929Z 07005KT 24/17 A3016 RMK A01 T02350166  RH  065%=      5-min Rain = 0
KHO1 140930Z 07006KT 24/17 A3016 RMK A01 T02350167  RH  065%=      5-min Rain = 0
KHO1 140931Z 06006KT 24/17 A3016 RMK A01 T02350167  RH  065%=      5-min Rain = 0
KHO1 140932Z 07006KT 24/17 A3016 RMK A01 T02350167  RH  065%=      5-min Rain = 0
KHO1 140933Z 06007KT 24/17 A3016 RMK A01 T02350167  RH  066%=      5-min Rain = 0
KHO1 140934Z 07006KT 24/17 A3016 RMK A01 T02350167  RH  066%=      5-min Rain = 0
KHO1 140935Z 06006KT 24/17 A3016 RMK A01 T02350167  RH  066%=      5-min Rain = 0
KHO1 140936Z 07005KT 24/17 A3016 RMK A01 T02350167  RH  066%=      5-min Rain = 0
KHO1 140937Z 07006KT 24/17 A3016 RMK A01 T02350167  RH  066%=      5-min Rain = 0
KHO1 140938Z 07006KT 23/17 A3016 RMK A01 T02340168  RH  066%=      5-min Rain = 0
KHO1 140939Z 07006KT 23/17 A3016 RMK A01 T02340168  RH  066%=      5-min Rain = 0
KHO1 140940Z 07005KT 23/17 A3016 RMK A01 T02340168  RH  066%=      5-min Rain = 0
KHO1 140941Z 07006KT 23/17 A3016 RMK A01 T02340168  RH  066%=      5-min Rain = 0
KHO1 140942Z 07005KT 23/17 A3016 RMK A01 T02340168  RH  066%=      5-min Rain = 0
KHO1 140943Z 07005KT 23/17 A3016 RMK A01 T02340168  RH  067%=      5-min Rain = 0
KHO1 140944Z 07006KT 23/17 A3016 RMK A01 T02340168  RH  067%=      5-min Rain = 0
KHO1 140945Z 07007KT 23/17 A3016 RMK A01 T02340169  RH  067%=      5-min Rain = 0
KHO1 140946Z 07006KT 23/17 A3015 RMK A01 T02340169  RH  067%=      5-min Rain = 0
KHO1 140947Z 07006KT 23/17 A3016 RMK A01 T02340169  RH  067%=      5-min Rain = 0
KHO1 140948Z 07006KT 24/17 A3016 RMK A01 T02350169  RH  067%=      5-min Rain = 0
KHO1 140949Z 06006KT 24/17 A3016 RMK A01 T02350169  RH  067%=      5-min Rain = 0
KHO1 140950Z 07006KT 24/17 A3016 RMK A01 T02350169  RH  067%=      5-min Rain = 0
KHO1 140951Z 06006KT 24/17 A3016 RMK A01 T02350169  RH  067%=      5-min Rain = 0
KHO1 140952Z 06006KT 24/17 A3016 RMK A01 T02350169  RH  067%=      5-min Rain = 0
KHO1 140953Z 06007KT 24/17 A3016 RMK A01 T02350169  RH  067%=      5-min Rain = 0
KHO1 140954Z 06006KT 24/17 A3016 RMK A01 T02350169  RH  067%=      5-min Rain = 0
KHO1 140955Z 06006KT 24/17 A3016 RMK A01 T02350169  RH  067%=      5-min Rain = 0
KHO1 140956Z 05007KT 24/17 A3016 RMK A01 T02350169  RH  067%=      5-min Rain = 0
KHO1 140957Z 05006KT 23/17 A3016 RMK A01 T02340169  RH  067%=      5-min Rain = 0
KHO1 140958Z 06006KT 23/17 A3016 RMK A01 T02340169  RH  067%=      5-min Rain = 0
KHO1 140959Z 06006KT 23/17 A3016 RMK A01 T02340169  RH  067%=      5-min Rain = 0
KHO1 141000Z 06007KT 23/17 A3016 RMK A01 T02340169  RH  067%=      5-min Rain = 0
KHO1 141001Z 06006KT 23/17 A3016 RMK A01 T02330170  RH  067%=      5-min Rain = 0
KHO1 141002Z 06007KT 23/17 A3016 RMK A01 T02330170  RH  067%=      5-min Rain = 0
KHO1 141003Z 06007KT 23/17 A3016 RMK A01 T02330170  RH  068%=      5-min Rain = 0
KHO1 141004Z 06006KT 23/17 A3016 RMK A01 T02330170  RH  068%=      5-min Rain = 0
KHO1 141005Z 06008KT 23/17 A3016 RMK A01 T02330170  RH  068%=      5-min Rain = 0
KHO1 141006Z 06007KT 23/17 A3016 RMK A01 T02330170  RH  068%=      5-min Rain = 0
KHO1 141007Z 06008KT 23/17 A3016 RMK A01 T02320170  RH  068%=      5-min Rain = 0
KHO1 141008Z 06008KT 23/17 A3016 RMK A01 T02320170  RH  068%=      5-min Rain = 0
KHO1 141009Z 06007KT 23/17 A3016 RMK A01 T02320170  RH  068%=      5-min Rain = 0
KHO1 141010Z 06005KT 23/17 A3016 RMK A01 T02320170  RH  068%=      5-min Rain = 0
KHO1 141011Z 06006KT 23/17 A3016 RMK A01 T02320170  RH  068%=      5-min Rain = 0
KHO1 141012Z 06008KT 23/17 A3016 RMK A01 T02310170  RH  068%=      5-min Rain = 0
KHO1 141013Z 07007KT 23/17 A3016 RMK A01 T02310170  RH  069%=      5-min Rain = 0
KHO1 141014Z 07007KT 23/17 A3016 RMK A01 T02310171  RH  069%=      5-min Rain = 0
KHO1 141015Z 06006KT 23/17 A3016 RMK A01 T02310171  RH  069%=      5-min Rain = 0
KHO1 141016Z 07006KT 23/17 A3016 RMK A01 T02310171  RH  069%=      5-min Rain = 0
KHO1 141017Z 06006KT 23/17 A3016 RMK A01 T02310171  RH  069%=      5-min Rain = 0
KHO1 141018Z 06006KT 23/17 A3016 RMK A01 T02310171  RH  069%=      5-min Rain = 0
KHO1 141019Z 06007KT 23/17 A3016 RMK A01 T02310171  RH  069%=      5-min Rain = 0
KHO1 141020Z 06006KT 23/17 A3016 RMK A01 T02310171  RH  069%=      5-min Rain = 0
KHO1 141021Z 06006KT 23/17 A3016 RMK A01 T02310172  RH  069%=      5-min Rain = 0
KHO1 141022Z 06007KT 23/17 A3016 RMK A01 T02310172  RH  069%=      5-min Rain = 0
KHO1 141023Z 07007KT 23/17 A3016 RMK A01 T02320172  RH  069%=      5-min Rain = 0
KHO1 141024Z 07007KT 23/17 A3016 RMK A01 T02320172  RH  069%=      5-min Rain = 0
KHO1 141025Z 07006KT 23/17 A3017 RMK A01 T02320172  RH  069%=      5-min Rain = 0
KHO1 141026Z 07007KT 23/17 A3017 RMK A01 T02320172  RH  069%=      5-min Rain = 0
KHO1 141027Z 07007KT 23/17 A3017 RMK A01 T02320172  RH  069%=      5-min Rain = 0
KHO1 141028Z 07006KT 23/17 A3017 RMK A01 T02320173  RH  069%=      5-min Rain = 0
KHO1 141029Z 07008KT 23/17 A3017 RMK A01 T02320173  RH  069%=      5-min Rain = 0
KHO1 141030Z 07006KT 23/17 A3017 RMK A01 T02320173  RH  069%=      5-min Rain = 0
KHO1 141031Z 07007KT 23/17 A3017 RMK A01 T02320173  RH  069%=      5-min Rain = 0
KHO1 141032Z 06007KT 23/17 A3017 RMK A01 T02320173  RH  069%=      5-min Rain = 0
KHO1 141033Z 07007KT 23/17 A3017 RMK A01 T02310173  RH  070%=      5-min Rain = 0
KHO1 141034Z 06008KT 23/17 A3017 RMK A01 T02320173  RH  070%=      5-min Rain = 0
KHO1 141035Z 06007KT 23/17 A3017 RMK A01 T02320173  RH  070%=      5-min Rain = 0
KHO1 141036Z 07006KT 23/17 A3017 RMK A01 T02320173  RH  070%=      5-min Rain = 0
KHO1 141037Z 07007KT 23/17 A3017 RMK A01 T02310173  RH  070%=      5-min Rain = 0
KHO1 141038Z 06006KT 23/17 A3017 RMK A01 T02310173  RH  070%=      5-min Rain = 0
KHO1 141039Z 07006KT 23/17 A3017 RMK A01 T02310173  RH  070%=      5-min Rain = 0
KHO1 141040Z 07007KT 23/17 A3017 RMK A01 T02310173  RH  070%=      5-min Rain = 0
KHO1 141041Z 06006KT 23/17 A3017 RMK A01 T02310173  RH  070%=      5-min Rain = 0
KHO1 141042Z 07006KT 23/17 A3017 RMK A01 T02310173  RH  070%=      5-min Rain = 0
KHO1 141043Z 06007KT 23/17 A3017 RMK A01 T02310173  RH  070%=      5-min Rain = 0
KHO1 141044Z 07007KT 23/17 A3017 RMK A01 T02310173  RH  070%=      5-min Rain = 0
KHO1 141045Z 07006KT 23/17 A3017 RMK A01 T02310173  RH  070%=      5-min Rain = 0
KHO1 141046Z 06007KT 23/17 A3017 RMK A01 T02300173  RH  070%=      5-min Rain = 0
KHO1 141047Z 06005KT 23/17 A3017 RMK A01 T02300173  RH  070%=      5-min Rain = 0
KHO1 141048Z 07006KT 23/17 A3017 RMK A01 T02300173  RH  070%=      5-min Rain = 0
KHO1 141049Z 06006KT 23/17 A3017 RMK A01 T02300173  RH  070%=      5-min Rain = 0
KHO1 141050Z 07006KT 23/17 A3017 RMK A01 T02300173  RH  070%=      5-min Rain = 0
KHO1 141051Z 06005KT 23/17 A3017 RMK A01 T02300173  RH  070%=      5-min Rain = 0
KHO1 141052Z 07005KT 23/17 A3017 RMK A01 T02290173  RH  070%=      5-min Rain = 0
KHO1 141053Z 06005KT 23/17 A3017 RMK A01 T02290173  RH  071%=      5-min Rain = 0
KHO1 141054Z 07005KT 23/17 A3017 RMK A01 T02290173  RH  071%=      5-min Rain = 0
KHO1 141055Z 07006KT 23/17 A3017 RMK A01 T02290173  RH  071%=      5-min Rain = 0
KHO1 141056Z 06006KT 23/17 A3017 RMK A01 T02290173  RH  071%=      5-min Rain = 0
KHO1 141057Z 07005KT 23/17 A3017 RMK A01 T02290173  RH  071%=      5-min Rain = 0
KHO1 141058Z 07006KT 23/17 A3017 RMK A01 T02280173  RH  071%=      5-min Rain = 0
KHO1 141059Z 06006KT 23/17 A3017 RMK A01 T02280173  RH  071%=      5-min Rain = 0
KHO1 141100Z 06006KT 23/17 A3017 RMK A01 T02280173  RH  071%=      5-min Rain = 0
KHO1 141101Z 07006KT 23/17 A3017 RMK A01 T02280173  RH  071%=      5-min Rain = 0
KHO1 141102Z 07006KT 23/17 A3017 RMK A01 T02280173  RH  071%=      5-min Rain = 0
KHO1 141103Z 07006KT 23/17 A3017 RMK A01 T02280173  RH  071%=      5-min Rain = 0
KHO1 141104Z 07006KT 23/17 A3017 RMK A01 T02280173  RH  071%=      5-min Rain = 0
KHO1 141105Z 07006KT 23/17 A3017 RMK A01 T02280173  RH  071%=      5-min Rain = 0
KHO1 141106Z 06005KT 23/17 A3017 RMK A01 T02270173  RH  071%=      5-min Rain = 0
KHO1 141107Z 06006KT 23/17 A3017 RMK A01 T02270173  RH  071%=      5-min Rain = 0
KHO1 141108Z 06006KT 23/17 A3017 RMK A01 T02270173  RH  071%=      5-min Rain = 0
KHO1 141109Z 06006KT 23/17 A3017 RMK A01 T02270173  RH  071%=      5-min Rain = 0
KHO1 141110Z 06007KT 23/17 A3017 RMK A01 T02270173  RH  071%=      5-min Rain = 0
KHO1 141111Z 06006KT 23/17 A3017 RMK A01 T02270173  RH  072%=      5-min Rain = 0
KHO1 141112Z 06006KT 23/17 A3017 RMK A01 T02260173  RH  072%=      5-min Rain = 0
KHO1 141113Z 06007KT 23/17 A3017 RMK A01 T02260173  RH  072%=      5-min Rain = 0
KHO1 141114Z 06007KT 23/17 A3017 RMK A01 T02260173  RH  072%=      5-min Rain = 0
KHO1 141115Z 05007KT 23/17 A3017 RMK A01 T02260173  RH  072%=      5-min Rain = 0
KHO1 141116Z 06006KT 23/17 A3017 RMK A01 T02260172  RH  072%=      5-min Rain = 0
KHO1 141117Z 06007KT 23/17 A3017 RMK A01 T02260172  RH  072%=      5-min Rain = 0
KHO1 141118Z 06006KT 23/17 A3017 RMK A01 T02250172  RH  072%=      5-min Rain = 0
KHO1 141119Z 07006KT 23/17 A3017 RMK A01 T02250172  RH  072%=      5-min Rain = 0
KHO1 141120Z 06007KT 23/17 A3017 RMK A01 T02250172  RH  072%=      5-min Rain = 0
KHO1 141121Z 06006KT 23/17 A3018 RMK A01 T02250172  RH  072%=      5-min Rain = 0
KHO1 141122Z 06006KT 22/17 A3018 RMK A01 T02240172  RH  072%=      5-min Rain = 0
KHO1 141123Z 06006KT 22/17 A3018 RMK A01 T02240172  RH  072%=      5-min Rain = 0
KHO1 141124Z 06007KT 22/17 A3018 RMK A01 T02240172  RH  072%=      5-min Rain = 0
KHO1 141125Z 06005KT 22/17 A3018 RMK A01 T02240172  RH  072%=      5-min Rain = 0
KHO1 141126Z 06006KT 22/17 A3018 RMK A01 T02240172  RH  072%=      5-min Rain = 0
KHO1 141127Z 06005KT 22/17 A3018 RMK A01 T02230172  RH  073%=      5-min Rain = 0
KHO1 141128Z 06005KT 22/17 A3018 RMK A01 T02230172  RH  073%=      5-min Rain = 0
KHO1 141129Z 06007KT 22/17 A3018 RMK A01 T02230172  RH  073%=      5-min Rain = 0
KHO1 141130Z 06006KT 22/17 A3018 RMK A01 T02230172  RH  073%=      5-min Rain = 0
KHO1 141131Z 06006KT 22/17 A3018 RMK A01 T02230172  RH  073%=      5-min Rain = 0
KHO1 141132Z 06006KT 22/17 A3018 RMK A01 T02230172  RH  073%=      5-min Rain = 0
KHO1 141133Z 05006KT 22/17 A3018 RMK A01 T02220172  RH  073%=      5-min Rain = 0
KHO1 141134Z 06006KT 22/17 A3018 RMK A01 T02220172  RH  073%=      5-min Rain = 0
KHO1 141135Z 06006KT 22/17 A3018 RMK A01 T02220172  RH  073%=      5-min Rain = 0
KHO1 141136Z 06007KT 22/17 A3018 RMK A01 T02220172  RH  073%=      5-min Rain = 0
KHO1 141137Z 05008KT 22/17 A3018 RMK A01 T02220172  RH  073%=      5-min Rain = 0
KHO1 141138Z 06008G13KT 22/17 A3018 RMK A01 T02220172  RH  073%=      5-min Rain = 0
KHO1 141139Z 05009KT 22/17 A3018 RMK A01 T02220172  RH  073%=      5-min Rain = 0
KHO1 141140Z 05008KT 22/17 A3018 RMK A01 T02220172  RH  073%=      5-min Rain = 0
KHO1 141141Z 05008KT 22/17 A3018 RMK A01 T02220172  RH  073%=      5-min Rain = 0
KHO1 141142Z 05008KT 22/17 A3018 RMK A01 T02220172  RH  073%=      5-min Rain = 0
KHO1 141143Z 05008KT 22/17 A3018 RMK A01 T02210172  RH  073%=      5-min Rain = 0
KHO1 141144Z 05007KT 22/17 A3018 RMK A01 T02210172  RH  073%=      5-min Rain = 0
KHO1 141145Z 05007KT 22/17 A3018 RMK A01 T02210172  RH  073%=      5-min Rain = 0
KHO1 141146Z 06008KT 22/17 A3018 RMK A01 T02210172  RH  073%=      5-min Rain = 0
KHO1 141147Z 05008KT 22/17 A3018 RMK A01 T02210172  RH  073%=      5-min Rain = 0
KHO1 141148Z 05007KT 22/17 A3018 RMK A01 T02210172  RH  073%=      5-min Rain = 0
KHO1 141149Z 06008KT 22/17 A3018 RMK A01 T02210172  RH  074%=      5-min Rain = 0
KHO1 141150Z 06006KT 22/17 A3018 RMK A01 T02210172  RH  073%=      5-min Rain = 0
KHO1 141151Z 06007KT 22/17 A3019 RMK A01 T02210172  RH  073%=      5-min Rain = 0
KHO1 141152Z 06007KT 22/17 A3019 RMK A01 T02210172  RH  073%=      5-min Rain = 0
KHO1 141153Z 06006KT 22/17 A3019 RMK A01 T02210172  RH  073%=      5-min Rain = 0
KHO1 141154Z 06007KT 22/17 A3019 RMK A01 T02210172  RH  074%=      5-min Rain = 0
KHO1 141155Z 06007KT 22/17 A3019 RMK A01 T02210172  RH  073%=      5-min Rain = 0
KHO1 141156Z 05006KT 22/17 A3019 RMK A01 T02210172  RH  073%=      5-min Rain = 0
KHO1 141157Z 06008KT 22/17 A3019 RMK A01 T02210172  RH  073%=      5-min Rain = 0
KHO1 141158Z 06009KT 22/17 A3019 RMK A01 T02210172  RH  073%=      5-min Rain = 0
KHO1 141159Z 05009KT 22/17 A3019 RMK A01 T02210172  RH  074%=      5-min Rain = 0
KHO1 141200Z 05008KT 22/17 A3019 RMK A01 T02210172  RH  073%=      5-min Rain = 0
KHO1 141201Z 05009KT 22/17 A3019 RMK A01 T02220172  RH  073%=      5-min Rain = 0
KHO1 141202Z 05008KT 22/17 A3019 RMK A01 T02210172  RH  073%=      5-min Rain = 0
KHO1 141203Z 05009G15KT 22/17 A3019 RMK A01 T02210172  RH  073%=      5-min Rain = 0
KHO1 141204Z 06009KT 22/17 A3019 RMK A01 T02210172  RH  074%=      5-min Rain = 0
KHO1 141205Z 05007KT 22/17 A302 RMK A01 T02210172  RH  074%=      5-min Rain = 0
KHO1 141206Z 06007KT 22/17 A302 RMK A01 T02210172  RH  073%=      5-min Rain = 0
KHO1 141207Z 06006KT 22/17 A302 RMK A01 T02210172  RH  073%=      5-min Rain = 0
KHO1 141208Z 05008KT 22/17 A302 RMK A01 T02210172  RH  073%=      5-min Rain = 0
KHO1 141209Z 05007KT 22/17 A302 RMK A01 T02210172  RH  073%=      5-min Rain = 0
KHO1 141210Z 05010KT 22/17 A302 RMK A01 T02210172  RH  074%=      5-min Rain = 0
KHO1 141211Z 05009KT 22/17 A302 RMK A01 T02220172  RH  073%=      5-min Rain = 0
KHO1 141212Z 06008KT 22/17 A302 RMK A01 T02220172  RH  073%=      5-min Rain = 0
KHO1 141213Z 05008G13KT 22/17 A302 RMK A01 T02220172  RH  073%=      5-min Rain = 0
KHO1 141214Z 05009KT 22/17 A302 RMK A01 T02220172  RH  073%=      5-min Rain = 0
KHO1 141215Z 05008KT 22/17 A302 RMK A01 T02220172  RH  073%=      5-min Rain = 0
KHO1 141216Z 05008KT 22/17 A302 RMK A01 T02220172  RH  073%=      5-min Rain = 0
KHO1 141217Z 06008KT 22/17 A302 RMK A01 T02220172  RH  073%=      5-min Rain = 0
KHO1 141218Z 05008KT 22/17 A302 RMK A01 T02220172  RH  073%=      5-min Rain = 0
KHO1 141219Z 05008KT 22/17 A302 RMK A01 T02220172  RH  073%=      5-min Rain = 0
KHO1 141220Z 05009KT 22/17 A302 RMK A01 T02220172  RH  073%=      5-min Rain = 0
KHO1 141221Z 05008G13KT 22/17 A302 RMK A01 T02220172  RH  073%=      5-min Rain = 0
KHO1 141222Z 05010KT 22/17 A3021 RMK A01 T02230172  RH  073%=      5-min Rain = 0
KHO1 141223Z 06008KT 22/17 A3021 RMK A01 T02230172  RH  073%=      5-min Rain = 0
KHO1 141224Z 05008KT 22/17 A3021 RMK A01 T02230172  RH  073%=      5-min Rain = 0
KHO1 141225Z 05008KT 22/17 A3021 RMK A01 T02230172  RH  073%=      5-min Rain = 0
KHO1 141226Z 05009KT 22/17 A3021 RMK A01 T02230172  RH  073%=      5-min Rain = 0
KHO1 141227Z 06009KT 22/17 A3021 RMK A01 T02230171  RH  073%=      5-min Rain = 0
KHO1 141228Z 06007KT 22/17 A3021 RMK A01 T02230171  RH  073%=      5-min Rain = 0
KHO1 141229Z 05009KT 22/17 A3021 RMK A01 T02230171  RH  072%=      5-min Rain = 0
KHO1 141230Z 06009G14KT 22/17 A3021 RMK A01 T02230171  RH  072%=      5-min Rain = 0
KHO1 141231Z 05008KT 22/17 A3021 RMK A01 T02230171  RH  072%=      5-min Rain = 0
KHO1 141232Z 05009KT 22/17 A3021 RMK A01 T02230171  RH  072%=      5-min Rain = 0
KHO1 141233Z 06009KT 22/17 A3021 RMK A01 T02240171  RH  072%=      5-min Rain = 0
KHO1 141234Z 05009KT 22/17 A3021 RMK A01 T02240171  RH  072%=      5-min Rain = 0
KHO1 141235Z 06008KT 22/17 A3021 RMK A01 T02240170  RH  072%=      5-min Rain = 0
KHO1 141236Z 05009KT 22/17 A3021 RMK A01 T02240170  RH  072%=      5-min Rain = 0
KHO1 141237Z 06008G14KT 22/17 A3021 RMK A01 T02240170  RH  072%=      5-min Rain = 0
KHO1 141238Z 07007KT 22/17 A3021 RMK A01 T02240170  RH  071%=      5-min Rain = 0
KHO1 141239Z 07008KT 22/17 A3021 RMK A01 T02240169  RH  071%=      5-min Rain = 0
KHO1 141240Z 06010KT 23/17 A3021 RMK A01 T02250169  RH  071%=      5-min Rain = 0
KHO1 141241Z 06009KT 23/17 A3021 RMK A01 T02250169  RH  071%=      5-min Rain = 0
KHO1 141242Z 06007KT 23/17 A3021 RMK A01 T02250169  RH  071%=      5-min Rain = 0
KHO1 141243Z 06009KT 23/17 A3021 RMK A01 T02250169  RH  071%=      5-min Rain = 0
KHO1 141244Z 05009KT 23/17 A3021 RMK A01 T02260169  RH  070%=      5-min Rain = 0
KHO1 141245Z 05009KT 23/17 A3022 RMK A01 T02260169  RH  070%=      5-min Rain = 0
KHO1 141246Z 05009KT 23/17 A3022 RMK A01 T02260169  RH  070%=      5-min Rain = 0
KHO1 141247Z 05008KT 23/17 A3022 RMK A01 T02260169  RH  070%=      5-min Rain = 0
KHO1 141248Z 05011KT 23/17 A3022 RMK A01 T02260169  RH  070%=      5-min Rain = 0
KHO1 141249Z 06010KT 23/17 A3022 RMK A01 T02260169  RH  070%=      5-min Rain = 0
KHO1 141250Z 06009KT 23/17 A3022 RMK A01 T02260169  RH  070%=      5-min Rain = 0
KHO1 141251Z 06007KT 23/17 A3022 RMK A01 T02270169  RH  070%=      5-min Rain = 0
KHO1 141252Z 07008KT 23/17 A3022 RMK A01 T02270169  RH  070%=      5-min Rain = 0
KHO1 141253Z 06009KT 23/17 A3022 RMK A01 T02270169  RH  070%=      5-min Rain = 0
KHO1 141254Z 07009KT 23/17 A3022 RMK A01 T02270169  RH  070%=      5-min Rain = 0
KHO1 141255Z 06009KT 23/17 A3022 RMK A01 T02270169  RH  069%=      5-min Rain = 0
KHO1 141256Z 07008KT 23/17 A3022 RMK A01 T02270169  RH  069%=      5-min Rain = 0
KHO1 141257Z 06008KT 23/17 A3022 RMK A01 T02270169  RH  069%=      5-min Rain = 0
KHO1 141258Z 06007KT 23/17 A3022 RMK A01 T02280169  RH  069%=      5-min Rain = 0
KHO1 141259Z 06010KT 23/17 A3022 RMK A01 T02280169  RH  069%=      5-min Rain = 0
KHO1 141300Z 06008KT 23/17 A3022 RMK A01 T02280169  RH  069%=      5-min Rain = 0
KHO1 141301Z 06009KT 23/17 A3022 RMK A01 T02280169  RH  069%=      5-min Rain = 0
KHO1 141302Z 07009KT 23/17 A3022 RMK A01 T02290169  RH  069%=      5-min Rain = 0
KHO1 141303Z 06009KT 23/17 A3022 RMK A01 T02290169  RH  069%=      5-min Rain = 0
KHO1 141304Z 06010G15KT 23/17 A3022 RMK A01 T02290169  RH  069%=      5-min Rain = 0
KHO1 141305Z 06010G16KT 23/17 A3022 RMK A01 T02290169  RH  069%=      5-min Rain = 0
KHO1 141306Z 06010KT 23/17 A3023 RMK A01 T02300169  RH  068%=      5-min Rain = 0
KHO1 141307Z 06011G17KT 23/17 A3023 RMK A01 T02300169  RH  068%=      5-min Rain = 0
KHO1 141308Z 05013G18KT 23/17 A3023 RMK A01 T02300168  RH  068%=      5-min Rain = 0
KHO1 141309Z 06010KT 23/17 A3023 RMK A01 T02300169  RH  068%=      5-min Rain = 0
KHO1 141310Z 06012KT 23/17 A3023 RMK A01 T02300168  RH  068%=      5-min Rain = 0
KHO1 141311Z 06010KT 23/17 A3023 RMK A01 T02300169  RH  068%=      5-min Rain = 0
KHO1 141312Z 06010G15KT 23/17 A3023 RMK A01 T02300169  RH  068%=      5-min Rain = 0
KHO1 141313Z 06011KT 23/17 A3023 RMK A01 T02300169  RH  068%=      5-min Rain = 0
KHO1 141314Z 05012G19KT 23/17 A3023 RMK A01 T02310169  RH  068%=      5-min Rain = 0
KHO1 141315Z 05014KT 23/17 A3023 RMK A01 T02310168  RH  068%=      5-min Rain = 0
KHO1 141316Z 05012G17KT 23/17 A3023 RMK A01 T02310168  RH  068%=      5-min Rain = 0
KHO1 141317Z 06011KT 23/17 A3023 RMK A01 T02310168  RH  068%=      5-min Rain = 0
KHO1 141318Z 06012G19KT 23/17 A3023 RMK A01 T02310168  RH  068%=      5-min Rain = 0
KHO1 141319Z 06013G18KT 23/17 A3023 RMK A01 T02300168  RH  068%=      5-min Rain = 0
KHO1 141320Z 07010KT 23/17 A3023 RMK A01 T02310169  RH  068%=      5-min Rain = 0
KHO1 141321Z 06013KT 23/17 A3023 RMK A01 T02310168  RH  068%=      5-min Rain = 0
KHO1 141322Z 06011G16KT 23/17 A3023 RMK A01 T02310168  RH  068%=      5-min Rain = 0
KHO1 141323Z 06010G15KT 23/17 A3023 RMK A01 T02320169  RH  068%=      5-min Rain = 0
KHO1 141324Z 05011KT 23/17 A3024 RMK A01 T02320169  RH  067%=      5-min Rain = 0
KHO1 141325Z 06011KT 23/17 A3024 RMK A01 T02320168  RH  067%=      5-min Rain = 0
KHO1 141326Z 06011KT 23/17 A3024 RMK A01 T02330168  RH  067%=      5-min Rain = 0
KHO1 141327Z 05012G20KT 23/17 A3024 RMK A01 T02330168  RH  067%=      5-min Rain = 0
KHO1 141328Z 05013G18KT 23/17 A3024 RMK A01 T02330169  RH  067%=      5-min Rain = 0
KHO1 141329Z 05011KT 23/17 A3024 RMK A01 T02330169  RH  067%=      5-min Rain = 0
KHO1 141330Z 06009KT 23/17 A3024 RMK A01 T02340169  RH  067%=      5-min Rain = 0
KHO1 141331Z 05010KT 24/17 A3024 RMK A01 T02350169  RH  066%=      5-min Rain = 0
KHO1 141332Z 05012KT 24/17 A3024 RMK A01 T02350168  RH  066%=      5-min Rain = 0
KHO1 141333Z 06010KT 24/17 A3024 RMK A01 T02350168  RH  066%=      5-min Rain = 0
KHO1 141334Z 05014G19KT 24/17 A3024 RMK A01 T02350168  RH  066%=      5-min Rain = 0
KHO1 141335Z 06012G18KT 24/17 A3025 RMK A01 T02350168  RH  066%=      5-min Rain = 0
KHO1 141336Z 06013KT 24/17 A3025 RMK A01 T02350168  RH  066%=      5-min Rain = 0
KHO1 141337Z 06012KT 24/17 A3025 RMK A01 T02350168  RH  066%=      5-min Rain = 0
KHO1 141338Z 06013KT 24/17 A3025 RMK A01 T02350168  RH  066%=      5-min Rain = 0
KHO1 141339Z 05013G19KT 24/17 A3025 RMK A01 T02350168  RH  066%=      5-min Rain = 0
KHO1 141340Z 06012G17KT 24/17 A3025 RMK A01 T02350168  RH  066%=      5-min Rain = 0
KHO1 141341Z 06009KT 24/17 A3026 RMK A01 T02350168  RH  066%=      5-min Rain = 0
KHO1 141342Z 06010KT 24/17 A3025 RMK A01 T02360168  RH  066%=      5-min Rain = 0
KHO1 141343Z 06008KT 24/17 A3026 RMK A01 T02370168  RH  065%=      5-min Rain = 0
KHO1 141344Z 06008KT 24/17 A3026 RMK A01 T02370168  RH  065%=      5-min Rain = 0
KHO1 141345Z 05012G18KT 24/17 A3025 RMK A01 T02370169  RH  065%=      5-min Rain = 0
KHO1 141346Z 05011KT 24/17 A3025 RMK A01 T02370168  RH  065%=      5-min Rain = 0
KHO1 141347Z 05010KT 24/17 A3026 RMK A01 T02360168  RH  066%=      5-min Rain = 0
KHO1 141348Z 05011G18KT 24/17 A3026 RMK A01 T02360168  RH  066%=      5-min Rain = 0
KHO1 141349Z 05011G17KT 24/17 A3026 RMK A01 T02360168  RH  066%=      5-min Rain = 0
KHO1 141350Z 05012G18KT 24/17 A3026 RMK A01 T02350168  RH  066%=      5-min Rain = 0
KHO1 141351Z 05012KT 24/17 A3026 RMK A01 T02350168  RH  066%=      5-min Rain = 0
KHO1 141352Z 05015KT 23/17 A3026 RMK A01 T02340168  RH  066%=      5-min Rain = 0
KHO1 141353Z 06013KT 23/17 A3026 RMK A01 T02330168  RH  067%=      5-min Rain = 0
KHO1 141354Z 05012G18KT 23/17 A3026 RMK A01 T02330168  RH  067%=      5-min Rain = 0
KHO1 141355Z 05012KT 23/17 A3026 RMK A01 T02330169  RH  067%=      5-min Rain = 0
KHO1 141356Z 04011G17KT 23/17 A3026 RMK A01 T02330169  RH  067%=      5-min Rain = 0
KHO1 141357Z 05013KT 23/17 A3026 RMK A01 T02340169  RH  067%=      5-min Rain = 0
KHO1 141358Z 06014G20KT 23/17 A3026 RMK A01 T02340168  RH  066%=      5-min Rain = 0
KHO1 141359Z 05015KT 23/17 A3026 RMK A01 T02340167  RH  066%=      5-min Rain = 0
KHO1 141400Z 05014G19KT 23/17 A3026 RMK A01 T02330167  RH  066%=      5-min Rain = 0
KHO1 141401Z 05016KT 23/17 A3027 RMK A01 T02320167  RH  067%=      5-min Rain = 0
KHO1 141402Z 05015G21KT 23/17 A3027 RMK A01 T02320167  RH  067%=      5-min Rain = 0
KHO1 141403Z 05012G18KT 23/17 A3027 RMK A01 T02330167  RH  067%=      5-min Rain = 0
KHO1 141404Z 05011G17KT 23/17 A3027 RMK A01 T02340167  RH  066%=      5-min Rain = 0
KHO1 141405Z 06010KT 24/17 A3027 RMK A01 T02350167  RH  066%=      5-min Rain = 0
KHO1 141406Z 05014G19KT 24/17 A3027 RMK A01 T02350167  RH  065%=      5-min Rain = 0
KHO1 141407Z 05017G22KT 24/17 A3027 RMK A01 T02350166  RH  065%=      5-min Rain = 0
KHO1 141408Z 05015G21KT 23/17 A3027 RMK A01 T02340166  RH  066%=      5-min Rain = 0
KHO1 141409Z 06013G18KT 23/17 A3027 RMK A01 T02340166  RH  066%=      5-min Rain = 0
KHO1 141410Z 06010G15KT 24/17 A3027 RMK A01 T02350166  RH  065%=      5-min Rain = 0
KHO1 141411Z 05016G22KT 24/17 A3027 RMK A01 T02360166  RH  065%=      5-min Rain = 0
KHO1 141412Z 05014G21KT 24/17 A3027 RMK A01 T02370166  RH  064%=      5-min Rain = 0
KHO1 141413Z 06012KT 24/17 A3027 RMK A01 T02370166  RH  064%=      5-min Rain = 0
KHO1 141414Z 05016G23KT 24/17 A3027 RMK A01 T02370166  RH  064%=      5-min Rain = 0
KHO1 141415Z 05017G24KT 24/17 A3027 RMK A01 T02370166  RH  064%=      5-min Rain = 0
KHO1 141416Z 05014G19KT 24/17 A3028 RMK A01 T02360166  RH  065%=      5-min Rain = 0
KHO1 141417Z 05015G25KT 24/17 A3027 RMK A01 T02360166  RH  065%=      5-min Rain = 0
KHO1 141418Z 05015KT 24/17 A3028 RMK A01 T02350166  RH  065%=      5-min Rain = 0
KHO1 141419Z 06013G22KT 24/17 A3028 RMK A01 T02350166  RH  065%=      5-min Rain = 0
KHO1 141420Z 05019G24KT 24/17 A3027 RMK A01 T02350166  RH  065%=      5-min Rain = 0
KHO1 141421Z 05018KT 23/17 A3028 RMK A01 T02340166  RH  066%=      5-min Rain = 0
KHO1 141422Z 05014KT 23/17 A3028 RMK A01 T02340167  RH  066%=      5-min Rain = 0
KHO1 141423Z 05012KT 24/17 A3028 RMK A01 T02350167  RH  066%=      5-min Rain = 0
KHO1 141424Z 05013KT 24/17 A3028 RMK A01 T02360167  RH  065%=      5-min Rain = 0
KHO1 141425Z 05015G20KT 24/17 A3028 RMK A01 T02360167  RH  065%=      5-min Rain = 0
KHO1 141426Z 06014KT 24/17 A3028 RMK A01 T02350166  RH  065%=      5-min Rain = 0
KHO1 141427Z 04014G19KT 24/17 A3028 RMK A01 T02350166  RH  065%=      5-min Rain = 0
KHO1 141428Z 04012KT 24/17 A3028 RMK A01 T02370166  RH  064%=      5-min Rain = 0
KHO1 141429Z 05016G21KT 24/17 A3028 RMK A01 T02370165  RH  064%=      5-min Rain = 0
KHO1 141430Z 05019KT 24/16 A3028 RMK A01 T02360164  RH  064%=      5-min Rain = 0
KHO1 141431Z 05013G20KT 23/16 A3028 RMK A01 T02340164  RH  065%=      5-min Rain = 0
KHO1 141432Z 06016G22KT 23/16 A3028 RMK A01 T02330163  RH  065%=      5-min Rain = 0
KHO1 141433Z 06015G21KT 23/16 A3028 RMK A01 T02330163  RH  065%=      5-min Rain = 0
KHO1 141434Z 06012KT 23/16 A3028 RMK A01 T02330164  RH  065%=      5-min Rain = 0
KHO1 141435Z 06011KT 23/16 A3028 RMK A01 T02340164  RH  065%=      5-min Rain = 0
KHO1 141436Z 06011KT 24/17 A3028 RMK A01 T02350165  RH  065%=      5-min Rain = 0
KHO1 141437Z 05012G17KT 24/17 A3028 RMK A01 T02360165  RH  064%=      5-min Rain = 0
KHO1 141438Z 05013G18KT 24/17 A3028 RMK A01 T02370165  RH  064%=      5-min Rain = 0
KHO1 141439Z 04021G26KT 24/16 A3028 RMK A01 T02370164  RH  063%=      5-min Rain = 0
KHO1 141440Z 05017G25KT 24/16 A3028 RMK A01 T02380162  RH  063%=      5-min Rain = 0
KHO1 141441Z 05016G23KT 24/16 A3028 RMK A01 T02380160  RH  062%=      5-min Rain = 0
KHO1 141442Z 05016G24KT 24/16 A3028 RMK A01 T02370160  RH  062%=      5-min Rain = 0
KHO1 141443Z 05017G23KT 24/16 A3029 RMK A01 T02370159  RH  061%=      5-min Rain = 0
KHO1 141444Z 05012G19KT 24/16 A3029 RMK A01 T02370159  RH  062%=      5-min Rain = 0
KHO1 141445Z 06011KT 24/16 A3029 RMK A01 T02370159  RH  062%=      5-min Rain = 0
KHO1 141446Z 05011KT 24/16 A3029 RMK A01 T02380159  RH  061%=      5-min Rain = 0
KHO1 141447Z 05011G18KT 24/16 A3029 RMK A01 T02400160  RH  061%=      5-min Rain = 0
KHO1 141448Z 04016KT 24/16 A3029 RMK A01 T02420160  RH  060%=      5-min Rain = 0
KHO1 141449Z 04018G24KT 24/16 A3029 RMK A01 T02420159  RH  060%=      5-min Rain = 0
KHO1 141450Z 04020G25KT 24/16 A3029 RMK A01 T02410158  RH  060%=      5-min Rain = 0
KHO1 141451Z 05014G20KT 24/16 A3029 RMK A01 T02420158  RH  059%=      5-min Rain = 0
KHO1 141452Z 05015KT 24/16 A3029 RMK A01 T02430156  RH  058%=      5-min Rain = 0
KHO1 141453Z 06012KT 24/16 A3029 RMK A01 T02440156  RH  058%=      5-min Rain = 0
KHO1 141454Z 06012G20KT 24/16 A3029 RMK A01 T02440155  RH  057%=      5-min Rain = 0
KHO1 141455Z 06015G24KT 24/16 A3029 RMK A01 T02440155  RH  058%=      5-min Rain = 0
KHO1 141456Z 05015KT 24/15 A3029 RMK A01 T02420154  RH  058%=      5-min Rain = 0
KHO1 141457Z 06012G20KT 24/16 A3029 RMK A01 T02420155  RH  058%=      5-min Rain = 0
KHO1 141458Z 05015G21KT 24/16 A3029 RMK A01 T02420155  RH  058%=      5-min Rain = 0
KHO1 141459Z 05014KT 24/16 A303 RMK A01 T02410155  RH  059%=      5-min Rain = 0
KHO1 141500Z 06012G17KT 24/16 A303 RMK A01 T02400155  RH  059%=      5-min Rain = 0
KHO1 141501Z 05012KT 24/16 A303 RMK A01 T02390156  RH  059%=      5-min Rain = 0
KHO1 141502Z 04011KT 24/16 A303 RMK A01 T02400156  RH  059%=      5-min Rain = 0
KHO1 141503Z 04018KT 24/16 A3029 RMK A01 T02420155  RH  058%=      5-min Rain = 0
KHO1 141504Z 04017G24KT 24/16 A3029 RMK A01 T02430155  RH  058%=      5-min Rain = 0
KHO1 141505Z 04022G28KT 24/15 A3029 RMK A01 T02420153  RH  058%=      5-min Rain = 0
KHO1 141506Z 05016G24KT 24/15 A3029 RMK A01 T02420153  RH  058%=      5-min Rain = 0
KHO1 141507Z 05017KT 24/15 A303 RMK A01 T02420152  RH  057%=      5-min Rain = 0
KHO1 141508Z 05016G22KT 24/15 A303 RMK A01 T02410152  RH  057%=      5-min Rain = 0
KHO1 141509Z 06015G22KT 24/15 A303 RMK A01 T02410152  RH  058%=      5-min Rain = 0
KHO1 141510Z 05015G21KT 24/15 A303 RMK A01 T02390152  RH  058%=      5-min Rain = 0
KHO1 141511Z 05015KT 24/15 A303 RMK A01 T02390152  RH  058%=      5-min Rain = 0
KHO1 141512Z 06013G19KT 24/15 A303 RMK A01 T02390153  RH  058%=      5-min Rain = 0
KHO1 141513Z 07011KT 24/15 A303 RMK A01 T02400153  RH  058%=      5-min Rain = 0
KHO1 141514Z 07009KT 24/15 A303 RMK A01 T02420153  RH  058%=      5-min Rain = 0
KHO1 141515Z 07008KT 24/15 A303 RMK A01 T02430153  RH  057%=      5-min Rain = 0
KHO1 141516Z 06011KT 24/15 A303 RMK A01 T02440153  RH  057%=      5-min Rain = 0
KHO1 141517Z 05013G22KT 24/15 A303 RMK A01 T02440153  RH  057%=      5-min Rain = 0
KHO1 141518Z 04018G25KT 24/15 A303 RMK A01 T02430153  RH  057%=      5-min Rain = 0
KHO1 141519Z 05015G24KT 24/15 A303 RMK A01 T02440153  RH  057%=      5-min Rain = 0
KHO1 141520Z 05014KT 24/15 A303 RMK A01 T02440152  RH  057%=      5-min Rain = 0
KHO1 141521Z 05013G18KT 24/15 A303 RMK A01 T02440153  RH  057%=      5-min Rain = 0
KHO1 141522Z 05014KT 25/15 A303 RMK A01 T02450152  RH  056%=      5-min Rain = 0
KHO1 141523Z 05017G23KT 24/15 A303 RMK A01 T02440152  RH  056%=      5-min Rain = 0
KHO1 141524Z 06013G24KT 24/15 A303 RMK A01 T02430152  RH  057%=      5-min Rain = 0
KHO1 141525Z 05016G25KT 24/15 A303 RMK A01 T02430152  RH  057%=      5-min Rain = 0
KHO1 141526Z 05016KT 24/15 A303 RMK A01 T02440152  RH  056%=      5-min Rain = 0
KHO1 141527Z 05012G17KT 25/15 A303 RMK A01 T02450153  RH  056%=      5-min Rain = 0
KHO1 141528Z 05012G20KT 25/15 A303 RMK A01 T02470153  RH  056%=      5-min Rain = 0
KHO1 141529Z 05014G24KT 25/15 A303 RMK A01 T02490153  RH  055%=      5-min Rain = 0
KHO1 141530Z 06011KT 25/15 A303 RMK A01 T02500153  RH  055%=      5-min Rain = 0
KHO1 141531Z 05012G19KT 25/15 A303 RMK A01 T02520153  RH  054%=      5-min Rain = 0
KHO1 141532Z 05014G20KT 25/15 A303 RMK A01 T02520153  RH  054%=      5-min Rain = 0
KHO1 141533Z 05015KT 25/15 A303 RMK A01 T02520152  RH  054%=      5-min Rain = 0
KHO1 141534Z 06014KT 25/15 A303 RMK A01 T02510152  RH  054%=      5-min Rain = 0
KHO1 141535Z 06013G19KT 25/15 A303 RMK A01 T02500152  RH  054%=      5-min Rain = 0
KHO1 141536Z 06014KT 25/15 A303 RMK A01 T02500152  RH  055%=      5-min Rain = 0
KHO1 141537Z 06015G21KT 25/15 A303 RMK A01 T02500152  RH  055%=      5-min Rain = 0
KHO1 141538Z 06013KT 25/15 A303 RMK A01 T02490152  RH  055%=      5-min Rain = 0
KHO1 141539Z 06011G17KT 25/15 A303 RMK A01 T02490153  RH  055%=      5-min Rain = 0
KHO1 141540Z 06012KT 25/15 A3031 RMK A01 T02500153  RH  055%=      5-min Rain = 0
KHO1 141541Z 06011KT 25/15 A303 RMK A01 T02510153  RH  054%=      5-min Rain = 0
KHO1 141542Z 07011KT 25/15 A3031 RMK A01 T02520153  RH  054%=      5-min Rain = 0
KHO1 141543Z 06012KT 25/15 A3031 RMK A01 T02530153  RH  054%=      5-min Rain = 0
KHO1 141544Z 05015G21KT 25/15 A303 RMK A01 T02540153  RH  054%=      5-min Rain = 0
KHO1 141545Z 05010KT 25/15 A3031 RMK A01 T02540153  RH  054%=      5-min Rain = 0
KHO1 141546Z 05015KT 26/15 A3031 RMK A01 T02550154  RH  054%=      5-min Rain = 0
KHO1 141547Z 06014KT 25/15 A303 RMK A01 T02540154  RH  054%=      5-min Rain = 0
KHO1 141548Z 05015G20KT 25/15 A303 RMK A01 T02540153  RH  054%=      5-min Rain = 0
KHO1 141549Z 05013G19KT 25/15 A303 RMK A01 T02530154  RH  054%=      5-min Rain = 0
KHO1 141550Z 06011G16KT 25/15 A303 RMK A01 T02540154  RH  054%=      5-min Rain = 0
KHO1 141551Z 05011KT 26/15 A3031 RMK A01 T02560154  RH  053%=      5-min Rain = 0
KHO1 141552Z 06011KT 26/15 A3031 RMK A01 T02570154  RH  053%=      5-min Rain = 0
KHO1 141553Z 06013G18KT 26/15 A303 RMK A01 T02570153  RH  053%=      5-min Rain = 0
KHO1 141554Z 05011G16KT 26/15 A3031 RMK A01 T02560153  RH  053%=      5-min Rain = 0
KHO1 141555Z 07010G17KT 26/15 A3031 RMK A01 T02560154  RH  053%=      5-min Rain = 0
KHO1 141556Z 05011G16KT 26/15 A3031 RMK A01 T02570154  RH  053%=      5-min Rain = 0
KHO1 141557Z 06012G17KT 26/15 A303 RMK A01 T02570153  RH  053%=      5-min Rain = 0
KHO1 141558Z 06011KT 26/15 A3031 RMK A01 T02560153  RH  053%=      5-min Rain = 0
KHO1 141559Z 06012G17KT 26/15 A303 RMK A01 T02570153  RH  053%=      5-min Rain = 0
KHO1 141600Z 05011KT 26/15 A303 RMK A01 T02580153  RH  052%=      5-min Rain = 0
KHO1 141601Z 04011G17KT 26/15 A3031 RMK A01 T02600152  RH  051%=      5-min Rain = 0
KHO1 141602Z 04015G20KT 26/15 A303 RMK A01 T02590149  RH  051%=      5-min Rain = 0
KHO1 141603Z 04012G18KT 26/15 A3031 RMK A01 T02580149  RH  051%=      5-min Rain = 0
KHO1 141604Z 05014KT 26/15 A303 RMK A01 T02590149  RH  051%=      5-min Rain = 0
KHO1 141605Z 06010KT 26/15 A3031 RMK A01 T02600148  RH  050%=      5-min Rain = 0
KHO1 141606Z 06010KT 26/15 A3031 RMK A01 T02600147  RH  050%=      5-min Rain = 0
KHO1 141607Z 06010KT 26/15 A3031 RMK A01 T02590147  RH  050%=      5-min Rain = 0
KHO1 141608Z 07010KT 26/15 A303 RMK A01 T02580147  RH  050%=      5-min Rain = 0
KHO1 141609Z 05011KT 26/15 A3031 RMK A01 T02580147  RH  050%=      5-min Rain = 0
KHO1 141610Z 05012G17KT 26/15 A303 RMK A01 T02570146  RH  050%=      5-min Rain = 0
KHO1 141611Z 05012KT 26/15 A303 RMK A01 T02560146  RH  051%=      5-min Rain = 0
KHO1 141612Z 04012KT 26/15 A3031 RMK A01 T02560146  RH  051%=      5-min Rain = 0
KHO1 141613Z 04015KT 26/15 A303 RMK A01 T02560146  RH  051%=      5-min Rain = 0
KHO1 141614Z 05012G17KT 26/15 A3031 RMK A01 T02570146  RH  050%=      5-min Rain = 0
KHO1 141615Z 04012G18KT 26/15 A3031 RMK A01 T02570145  RH  050%=      5-min Rain = 0
KHO1 141616Z 04017G23KT 26/14 A303 RMK A01 T02570142  RH  049%=      5-min Rain = 0
KHO1 141617Z 04015G20KT 26/14 A3031 RMK A01 T02570141  RH  049%=      5-min Rain = 0
KHO1 141618Z 05017G22KT 26/14 A303 RMK A01 T02580141  RH  048%=      5-min Rain = 0
KHO1 141619Z 05014G19KT 26/14 A303 RMK A01 T02570141  RH  049%=      5-min Rain = 0
KHO1 141620Z 05013KT 26/14 A303 RMK A01 T02580141  RH  048%=      5-min Rain = 0
KHO1 141621Z 06010KT 26/14 A303 RMK A01 T02580141  RH  048%=      5-min Rain = 0
KHO1 141622Z 06011G16KT 26/14 A303 RMK A01 T02590141  RH  048%=      5-min Rain = 0
KHO1 141623Z 07009KT 26/14 A3029 RMK A01 T02600141  RH  048%=      5-min Rain = 0
KHO1 141624Z 06009KT 26/14 A3029 RMK A01 T02600141  RH  048%=      5-min Rain = 0
KHO1 141625Z 06011KT 26/14 A3029 RMK A01 T02600140  RH  048%=      5-min Rain = 0
KHO1 141626Z 06010KT 26/14 A3029 RMK A01 T02600140  RH  047%=      5-min Rain = 0
KHO1 141627Z 06014KT 26/14 A3029 RMK A01 T02620141  RH  047%=      5-min Rain = 0
KHO1 141628Z 06011KT 26/14 A3029 RMK A01 T02640142  RH  047%=      5-min Rain = 0
KHO1 141629Z 06014KT 27/14 A3029 RMK A01 T02660140  RH  046%=      5-min Rain = 0
KHO1 141630Z 06012KT 27/14 A3029 RMK A01 T02660140  RH  046%=      5-min Rain = 0
KHO1 141631Z 05012KT 27/14 A3029 RMK A01 T02660141  RH  046%=      5-min Rain = 0
KHO1 141632Z 06009KT 27/14 A3029 RMK A01 T02690141  RH  045%=      5-min Rain = 0
KHO1 141633Z 06009KT 27/14 A3029 RMK A01 T02710141  RH  045%=      5-min Rain = 0
KHO1 141634Z 06011G16KT 27/14 A3029 RMK A01 T02730141  RH  044%=      5-min Rain = 0
KHO1 141635Z 07011G16KT 27/14 A3029 RMK A01 T02740139  RH  043%=      5-min Rain = 0
KHO1 141636Z 08010KT 28/14 A3029 RMK A01 T02750139  RH  043%=      5-min Rain = 0
KHO1 141637Z 09009KT 28/14 A3029 RMK A01 T02760138  RH  043%=      5-min Rain = 0
KHO1 141638Z 08007KT 28/14 A3029 RMK A01 T02770139  RH  043%=      5-min Rain = 0
KHO1 141639Z 07009KT 28/14 A3029 RMK A01 T02800139  RH  042%=      5-min Rain = 0
KHO1 141640Z 06009KT 28/14 A3028 RMK A01 T02800138  RH  042%=      5-min Rain = 0
KHO1 141641Z 06010G15KT 28/14 A3028 RMK A01 T02790139  RH  042%=      5-min Rain = 0
KHO1 141642Z 07009KT 28/14 A3028 RMK A01 T02780138  RH  042%=      5-min Rain = 0
KHO1 141643Z 06011G18KT 28/14 A3028 RMK A01 T02780137  RH  042%=      5-min Rain = 0
KHO1 141644Z 06010KT 28/14 A3028 RMK A01 T02780136  RH  042%=      5-min Rain = 0
KHO1 141645Z 06010KT 28/14 A3028 RMK A01 T02790136  RH  041%=      5-min Rain = 0
KHO1 141646Z 06010G16KT 28/14 A3028 RMK A01 T02800136  RH  041%=      5-min Rain = 0
KHO1 141647Z 06009KT 28/14 A3028 RMK A01 T02810136  RH  041%=      5-min Rain = 0
KHO1 141648Z 08008KT 28/14 A3028 RMK A01 T02810137  RH  041%=      5-min Rain = 0
KHO1 141649Z 07009KT 28/14 A3028 RMK A01 T02840137  RH  041%=      5-min Rain = 0
KHO1 141650Z 06010G15KT 29/14 A3028 RMK A01 T02850135  RH  040%=      5-min Rain = 0
KHO1 141651Z 06012G17KT 28/13 A3028 RMK A01 T02840134  RH  040%=      5-min Rain = 0
KHO1 141652Z 06015KT 28/13 A3027 RMK A01 T02820132  RH  040%=      5-min Rain = 0
KHO1 141653Z 06013G18KT 28/13 A3027 RMK A01 T02790132  RH  040%=      5-min Rain = 0
KHO1 141654Z 07013KT 28/13 A3028 RMK A01 T02790128  RH  039%=      5-min Rain = 0
KHO1 141655Z 06011KT 28/13 A3028 RMK A01 T02800129  RH  039%=      5-min Rain = 0
KHO1 141656Z 05016G21KT 28/13 A3028 RMK A01 T02810130  RH  039%=      5-min Rain = 0
KHO1 141657Z 06011KT 28/13 A3028 RMK A01 T02800130  RH  040%=      5-min Rain = 0
KHO1 141658Z 06010KT 28/13 A3028 RMK A01 T02810132  RH  040%=      5-min Rain = 0
KHO1 141659Z 07009KT 28/13 A3028 RMK A01 T02820131  RH  039%=      5-min Rain = 0
KHO1 141700Z 06010KT 28/13 A3027 RMK A01 T02840130  RH  039%=      5-min Rain = 0
KHO1 141701Z 05014G20KT 29/13 A3027 RMK A01 T02850129  RH  038%=      5-min Rain = 0
KHO1 141702Z 06010KT 28/13 A3027 RMK A01 T02840130  RH  039%=      5-min Rain = 0
KHO1 141703Z 07010KT 28/13 A3027 RMK A01 T02840131  RH  039%=      5-min Rain = 0
KHO1 141704Z 07010KT 29/13 A3027 RMK A01 T02870130  RH  038%=      5-min Rain = 0
KHO1 141705Z 07010KT 29/13 A3027 RMK A01 T02890131  RH  038%=      5-min Rain = 0
KHO1 141706Z 07010KT 29/13 A3027 RMK A01 T02920129  RH  037%=      5-min Rain = 0
KHO1 141707Z 06011G16KT 29/13 A3027 RMK A01 T02920128  RH  036%=      5-min Rain = 0
KHO1 141708Z 05012G18KT 29/13 A3027 RMK A01 T02900129  RH  037%=      5-min Rain = 0
KHO1 141709Z 05010G15KT 29/13 A3027 RMK A01 T02910130  RH  037%=      5-min Rain = 0
KHO1 141710Z 06009G14KT 29/13 A3027 RMK A01 T02920130  RH  037%=      5-min Rain = 0
KHO1 141711Z 06009G14KT 29/13 A3027 RMK A01 T02930131  RH  037%=      5-min Rain = 0
KHO1 141712Z 06011KT 30/13 A3027 RMK A01 T02950131  RH  037%=      5-min Rain = 0
KHO1 141713Z 05011G17KT 30/13 A3027 RMK A01 T02950131  RH  036%=      5-min Rain = 0
KHO1 141714Z 05010KT 30/13 A3027 RMK A01 T02960131  RH  036%=      5-min Rain = 0
KHO1 141715Z 06009KT 30/13 A3026 RMK A01 T02960129  RH  036%=      5-min Rain = 0
KHO1 141716Z 06007KT 30/13 A3026 RMK A01 T02960129  RH  036%=      5-min Rain = 0
KHO1 141717Z 05011G17KT 30/13 A3026 RMK A01 T02970129  RH  036%=      5-min Rain = 0
KHO1 141718Z 05012KT 30/13 A3026 RMK A01 T02960129  RH  036%=      5-min Rain = 0
KHO1 141719Z 07008KT 30/13 A3026 RMK A01 T02950127  RH  036%=      5-min Rain = 0
KHO1 141720Z 07008G13KT 30/13 A3026 RMK A01 T02950128  RH  036%=      5-min Rain = 0
KHO1 141721Z 10010KT 30/13 A3026 RMK A01 T02990129  RH  035%=      5-min Rain = 0
KHO1 141722Z 09010KT 30/13 A3026 RMK A01 T03030128  RH  034%=      5-min Rain = 0
KHO1 141723Z 11014KT 30/13 A3026 RMK A01 T03040127  RH  034%=      5-min Rain = 0
KHO1 141724Z 09009KT 30/13 A3026 RMK A01 T03020126  RH  034%=      5-min Rain = 0
KHO1 141725Z 10009KT 30/13 A3026 RMK A01 T03020126  RH  034%=      5-min Rain = 0
KHO1 141726Z 09009KT 30/13 A3026 RMK A01 T03020126  RH  034%=      5-min Rain = 0
KHO1 141727Z 08007G13KT 31/13 A3026 RMK A01 T03050127  RH  034%=      5-min Rain = 0
KHO1 141728Z 10011G17KT 31/13 A3026 RMK A01 T03060127  RH  033%=      5-min Rain = 0
KHO1 141729Z 08007KT 31/13 A3026 RMK A01 T03050125  RH  033%=      5-min Rain = 0
KHO1 141730Z 08010KT 31/13 A3026 RMK A01 T03060126  RH  033%=      5-min Rain = 0
KHO1 141731Z 09011KT 31/12 A3026 RMK A01 T03060124  RH  033%=      5-min Rain = 0
KHO1 141732Z 09011G16KT 31/12 A3026 RMK A01 T03060123  RH  032%=      5-min Rain = 0
KHO1 141733Z 09008KT 31/12 A3026 RMK A01 T03070123  RH  032%=      5-min Rain = 0
KHO1 141734Z 10011G16KT 31/12 A3026 RMK A01 T03080124  RH  032%=      5-min Rain = 0
KHO1 141735Z 09010KT 31/12 A3025 RMK A01 T03090124  RH  032%=      5-min Rain = 0
KHO1 141736Z 07009KT 31/13 A3025 RMK A01 T03120125  RH  032%=      5-min Rain = 0
KHO1 141737Z 07007KT 31/13 A3026 RMK A01 T03110125  RH  032%=      5-min Rain = 0
KHO1 141738Z 08009KT 31/13 A3026 RMK A01 T03100126  RH  032%=      5-min Rain = 0
KHO1 141739Z 07008KT 31/13 A3025 RMK A01 T03090126  RH  033%=      5-min Rain = 0
KHO1 141740Z 06010KT 31/13 A3025 RMK A01 T03090127  RH  033%=      5-min Rain = 0
KHO1 141741Z 06010KT 31/13 A3025 RMK A01 T03070125  RH  033%=      5-min Rain = 0
KHO1 141742Z 06010KT 31/12 A3025 RMK A01 T03050124  RH  033%=      5-min Rain = 0
KHO1 141743Z 07010KT 30/12 A3025 RMK A01 T03040124  RH  033%=      5-min Rain = 0
KHO1 141744Z 06011KT 30/12 A3025 RMK A01 T03040123  RH  033%=      5-min Rain = 0
KHO1 141745Z 06011KT 30/12 A3025 RMK A01 T03030124  RH  033%=      5-min Rain = 0
KHO1 141746Z 06011KT 30/12 A3025 RMK A01 T03020124  RH  033%=      5-min Rain = 0
KHO1 141747Z 06012KT 30/12 A3025 RMK A01 T03020124  RH  033%=      5-min Rain = 0
KHO1 141748Z 06010KT 30/12 A3025 RMK A01 T03010124  RH  034%=      5-min Rain = 0
KHO1 141749Z 09010G15KT 30/12 A3025 RMK A01 T03020124  RH  033%=      5-min Rain = 0
KHO1 141750Z 08007KT 31/13 A3025 RMK A01 T03060125  RH  033%=      5-min Rain = 0
KHO1 141751Z 08010KT 31/12 A3025 RMK A01 T03100124  RH  032%=      5-min Rain = 0
KHO1 141752Z 07009KT 31/12 A3025 RMK A01 T03120124  RH  032%=      5-min Rain = 0
KHO1 141753Z 09011KT 31/13 A3025 RMK A01 T03120126  RH  032%=      5-min Rain = 0
KHO1 141754Z 09009KT 31/13 A3025 RMK A01 T03120127  RH  032%=      5-min Rain = 0
KHO1 141755Z 09007KT 31/13 A3025 RMK A01 T03120127  RH  032%=      5-min Rain = 0
KHO1 141756Z 07009KT 31/13 A3025 RMK A01 T03130127  RH  032%=      5-min Rain = 0
KHO1 141757Z 09009KT 31/13 A3025 RMK A01 T03140128  RH  032%=      5-min Rain = 0
KHO1 141758Z 09008KT 32/13 A3025 RMK A01 T03150128  RH  032%=      5-min Rain = 0
KHO1 141759Z 10009G16KT 32/13 A3025 RMK A01 T03170127  RH  031%=      5-min Rain = 0
KHO1 141800Z 10013KT 32/13 A3025 RMK A01 T03190125  RH  031%=      5-min Rain = 0
KHO1 141801Z 10009KT 32/13 A3025 RMK A01 T03200125  RH  030%=      5-min Rain = 0
KHO1 141802Z 09012KT 32/13 A3025 RMK A01 T03210125  RH  030%=      5-min Rain = 0
KHO1 141803Z 08009KT 32/12 A3025 RMK A01 T03190124  RH  030%=      5-min Rain = 0
KHO1 141804Z 07007KT 32/13 A3025 RMK A01 T03180125  RH  031%=      5-min Rain = 0
KHO1 141805Z 09010KT 32/13 A3025 RMK A01 T03180126  RH  031%=      5-min Rain = 0
KHO1 141806Z 10010G15KT 32/13 A3024 RMK A01 T03180126  RH  031%=      5-min Rain = 0
KHO1 141807Z 11010KT 32/13 A3025 RMK A01 T03180126  RH  031%=      5-min Rain = 0
KHO1 141808Z 10007KT 32/13 A3025 RMK A01 T03170126  RH  031%=      5-min Rain = 0
KHO1 141809Z 07009KT 32/13 A3024 RMK A01 T03200127  RH  031%=      5-min Rain = 0
KHO1 141810Z 08007KT 32/13 A3025 RMK A01 T03210127  RH  031%=      5-min Rain = 0
KHO1 141811Z 07005KT 32/13 A3024 RMK A01 T03220128  RH  031%=      5-min Rain = 0
KHO1 141812Z 09007KT 32/13 A3024 RMK A01 T03240129  RH  031%=      5-min Rain = 0
KHO1 141813Z 10009KT 33/13 A3024 RMK A01 T03250128  RH  030%=      5-min Rain = 0
KHO1 141814Z 10010KT 33/13 A3024 RMK A01 T03270129  RH  030%=      5-min Rain = 0
KHO1 141815Z 08007KT 33/13 A3024 RMK A01 T03280127  RH  030%=      5-min Rain = 0
KHO1 141816Z 08008KT 33/13 A3024 RMK A01 T03280127  RH  029%=      5-min Rain = 0
KHO1 141817Z 08006G11KT 33/13 A3024 RMK A01 T03250126  RH  030%=      5-min Rain = 0
KHO1 141818Z 10010KT 33/13 A3024 RMK A01 T03260127  RH  030%=      5-min Rain = 0
KHO1 141819Z 09009KT 33/13 A3024 RMK A01 T03270125  RH  029%=      5-min Rain = 0
KHO1 141820Z 07006KT 33/13 A3024 RMK A01 T03270126  RH  029%=      5-min Rain = 0
KHO1 141821Z 07007KT 33/13 A3024 RMK A01 T03270126  RH  029%=      5-min Rain = 0
KHO1 141822Z 09008KT 33/13 A3024 RMK A01 T03260127  RH  030%=      5-min Rain = 0
KHO1 141823Z 10007KT 33/13 A3024 RMK A01 T03270128  RH  030%=      5-min Rain = 0
KHO1 141824Z 07005KT 33/13 A3024 RMK A01 T03280128  RH  030%=      5-min Rain = 0
KHO1 141825Z 11011G16KT 33/13 A3024 RMK A01 T03300128  RH  029%=      5-min Rain = 0
KHO1 141826Z 10008KT 33/13 A3024 RMK A01 T03280127  RH  030%=      5-min Rain = 0
KHO1 141827Z 07008KT 33/13 A3024 RMK A01 T03280126  RH  029%=      5-min Rain = 0
KHO1 141828Z 09007KT 33/13 A3024 RMK A01 T03270127  RH  030%=      5-min Rain = 0
KHO1 141829Z 07006KT 33/13 A3024 RMK A01 T03280128  RH  030%=      5-min Rain = 0
KHO1 141830Z 08006KT 33/13 A3024 RMK A01 T03280125  RH  029%=      5-min Rain = 0
KHO1 141831Z 06007KT 32/13 A3024 RMK A01 T03230125  RH  030%=      5-min Rain = 0
KHO1 141832Z 06010G15KT 32/13 A3024 RMK A01 T03180125  RH  031%=      5-min Rain = 0
KHO1 141833Z 07007G12KT 32/13 A3024 RMK A01 T03160127  RH  032%=      5-min Rain = 0
KHO1 141834Z 08009KT 32/13 A3024 RMK A01 T03180127  RH  031%=      5-min Rain = 0
KHO1 141835Z 10010KT 32/13 A3024 RMK A01 T03200128  RH  031%=      5-min Rain = 0
KHO1 141836Z 08007KT 32/13 A3024 RMK A01 T03230129  RH  031%=      5-min Rain = 0
KHO1 141837Z 06006KT 33/13 A3024 RMK A01 T03260129  RH  030%=      5-min Rain = 0
KHO1 141838Z 08005KT 33/13 A3024 RMK A01 T03280129  RH  030%=      5-min Rain = 0
KHO1 141839Z 08006KT 33/13 A3024 RMK A01 T03290128  RH  030%=      5-min Rain = 0
KHO1 141840Z 08004KT 33/13 A3024 RMK A01 T03300127  RH  029%=      5-min Rain = 0
KHO1 141841Z 09006KT 33/13 A3024 RMK A01 T03300128  RH  029%=      5-min Rain = 0
KHO1 141842Z 09006KT 33/13 A3024 RMK A01 T03320128  RH  029%=      5-min Rain = 0
KHO1 141843Z 10009KT 33/13 A3024 RMK A01 T03300126  RH  029%=      5-min Rain = 0
KHO1 141844Z 09009KT 33/13 A3024 RMK A01 T03290127  RH  029%=      5-min Rain = 0
KHO1 141845Z 09009G16KT 33/13 A3024 RMK A01 T03300127  RH  029%=      5-min Rain = 0
KHO1 141846Z 09007KT 33/13 A3024 RMK A01 T03310128  RH  029%=      5-min Rain = 0
KHO1 141847Z 09006KT 33/13 A3024 RMK A01 T03330129  RH  029%=      5-min Rain = 0
KHO1 141848Z 07007KT 34/13 A3023 RMK A01 T03350129  RH  029%=      5-min Rain = 0
KHO1 141849Z 09006KT 34/13 A3024 RMK A01 T03350130  RH  029%=      5-min Rain = 0
KHO1 141850Z 08006KT 34/13 A3024 RMK A01 T03380130  RH  028%=      5-min Rain = 0
KHO1 141851Z 07007KT 34/13 A3023 RMK A01 T03400128  RH  028%=      5-min Rain = 0
KHO1 141852Z 07006KT 34/13 A3023 RMK A01 T03380128  RH  028%=      5-min Rain = 0
KHO1 141853Z 08005KT 33/13 A3023 RMK A01 T03340128  RH  029%=      5-min Rain = 0
KHO1 141854Z 09008G14KT 33/13 A3023 RMK A01 T03340128  RH  029%=      5-min Rain = 0
KHO1 141855Z 09007KT 33/13 A3023 RMK A01 T03340128  RH  029%=      5-min Rain = 0
KHO1 141856Z 09006G11KT 34/13 A3023 RMK A01 T03360128  RH  028%=      5-min Rain = 0
KHO1 141857Z 11007KT 34/13 A3023 RMK A01 T03360127  RH  028%=      5-min Rain = 0
KHO1 141858Z 12013KT 33/12 A3023 RMK A01 T03290124  RH  029%=      5-min Rain = 0
KHO1 141859Z 12009KT 33/13 A3023 RMK A01 T03250125  RH  030%=      5-min Rain = 0
KHO1 141900Z 11009KT 32/13 A3023 RMK A01 T03230126  RH  030%=      5-min Rain = 0
KHO1 141901Z 07006KT 32/13 A3023 RMK A01 T03230127  RH  030%=      5-min Rain = 0
KHO1 141902Z 07006KT 33/13 A3023 RMK A01 T03260129  RH  030%=      5-min Rain = 0
KHO1 141903Z 07007KT 33/13 A3023 RMK A01 T03300130  RH  030%=      5-min Rain = 0
KHO1 141904Z 08008KT 33/13 A3023 RMK A01 T03330129  RH  029%=      5-min Rain = 0
KHO1 141905Z 08006KT 33/13 A3023 RMK A01 T03340128  RH  029%=      5-min Rain = 0
KHO1 141906Z 10007KT 33/13 A3023 RMK A01 T03330128  RH  029%=      5-min Rain = 0
KHO1 141907Z 10007KT 33/13 A3023 RMK A01 T03330128  RH  029%=      5-min Rain = 0
KHO1 141908Z 09005KT 33/13 A3023 RMK A01 T03340128  RH  029%=      5-min Rain = 0
KHO1 141909Z 09005KT 34/13 A3023 RMK A01 T03350128  RH  029%=      5-min Rain = 0
KHO1 141910Z 09007KT 34/13 A3023 RMK A01 T03360128  RH  028%=      5-min Rain = 0
KHO1 141911Z 09006G11KT 34/13 A3023 RMK A01 T03360128  RH  028%=      5-min Rain = 0
KHO1 141912Z 12011KT 33/13 A3023 RMK A01 T03340126  RH  028%=      5-min Rain = 0
KHO1 141913Z 08006KT 33/13 A3023 RMK A01 T03320128  RH  029%=      5-min Rain = 0
KHO1 141914Z 09006KT 34/13 A3023 RMK A01 T03360128  RH  028%=      5-min Rain = 0
KHO1 141915Z 10005KT 34/13 A3023 RMK A01 T03360127  RH  028%=      5-min Rain = 0
KHO1 141916Z 10010KT 34/13 A3023 RMK A01 T03350127  RH  028%=      5-min Rain = 0
KHO1 141917Z 10010KT 34/13 A3023 RMK A01 T03360127  RH  028%=      5-min Rain = 0
KHO1 141918Z 09005KT 34/13 A3023 RMK A01 T03350126  RH  028%=      5-min Rain = 0
KHO1 141919Z 08005KT 34/13 A3023 RMK A01 T03350127  RH  028%=      5-min Rain = 0
KHO1 141920Z 10009KT 34/13 A3023 RMK A01 T03360128  RH  028%=      5-min Rain = 0
KHO1 141921Z 11012KT 34/13 A3023 RMK A01 T03380128  RH  028%=      5-min Rain = 0
KHO1 141922Z 10008KT 34/13 A3023 RMK A01 T03370127  RH  028%=      5-min Rain = 0
KHO1 141923Z 06007KT 34/13 A3023 RMK A01 T03380127  RH  028%=      5-min Rain = 0
KHO1 141924Z 08007KT 34/13 A3023 RMK A01 T03380128  RH  028%=      5-min Rain = 0
KHO1 141925Z 07006KT 34/13 A3023 RMK A01 T03380126  RH  028%=      5-min Rain = 0
KHO1 141926Z 07005G10KT 34/13 A3023 RMK A01 T03380127  RH  028%=      5-min Rain = 0
KHO1 141927Z 09006KT 34/13 A3023 RMK A01 T03380126  RH  028%=      5-min Rain = 0
KHO1 141928Z 11008KT 34/13 A3022 RMK A01 T03380127  RH  028%=      5-min Rain = 0
KHO1 141929Z 11008G13KT 34/13 A3022 RMK A01 T03360126  RH  028%=      5-min Rain = 0
KHO1 141930Z 12011KT 34/13 A3022 RMK A01 T03360126  RH  028%=      5-min Rain = 0
KHO1 141931Z 11008KT 33/13 A3022 RMK A01 T03320125  RH  028%=      5-min Rain = 0
KHO1 141932Z 10007G12KT 33/13 A3022 RMK A01 T03320126  RH  029%=      5-min Rain = 0
KHO1 141933Z 09008KT 34/13 A3022 RMK A01 T03350126  RH  028%=      5-min Rain = 0
KHO1 141934Z 08007KT 34/13 A3022 RMK A01 T03380126  RH  028%=      5-min Rain = 0
KHO1 141935Z 09007KT 34/13 A3022 RMK A01 T03410125  RH  027%=      5-min Rain = 0
KHO1 141936Z 09009KT 34/12 A3022 RMK A01 T03410124  RH  027%=      5-min Rain = 0
KHO1 141937Z 08007KT 34/12 A3022 RMK A01 T03410124  RH  027%=      5-min Rain = 0
KHO1 141938Z 08005KT 34/13 A3022 RMK A01 T03420126  RH  027%=      5-min Rain = 0
KHO1 141939Z 08005KT 35/13 A3022 RMK A01 T03450125  RH  027%=      5-min Rain = 0
KHO1 141940Z 08005KT 35/12 A3022 RMK A01 T03460124  RH  026%=      5-min Rain = 0
KHO1 141941Z 08003KT 35/12 A3022 RMK A01 T03460123  RH  026%=      5-min Rain = 0
KHO1 141942Z 06005KT 35/12 A3022 RMK A01 T03460123  RH  026%=      5-min Rain = 0
KHO1 141943Z 06005KT 35/13 A3022 RMK A01 T03470125  RH  026%=      5-min Rain = 0
KHO1 141944Z 05007KT 35/12 A3022 RMK A01 T03490123  RH  026%=      5-min Rain = 0
KHO1 141945Z 06005KT 35/12 A3022 RMK A01 T03480123  RH  026%=      5-min Rain = 0
KHO1 141946Z 08004KT 35/12 A3022 RMK A01 T03490124  RH  026%=      5-min Rain = 0
KHO1 141947Z 04008KT 35/12 A3022 RMK A01 T03500121  RH  025%=      5-min Rain = 0
KHO1 141948Z 05007KT 35/12 A3022 RMK A01 T03470121  RH  025%=      5-min Rain = 0
KHO1 141949Z 08006KT 35/12 A3022 RMK A01 T03450123  RH  026%=      5-min Rain = 0
KHO1 141950Z 04007KT 34/12 A3022 RMK A01 T03440124  RH  026%=      5-min Rain = 0
KHO1 141951Z 03009KT 35/12 A3021 RMK A01 T03460122  RH  026%=      5-min Rain = 0
KHO1 141952Z 02011KT 34/12 A3021 RMK A01 T03410123  RH  027%=      5-min Rain = 0
KHO1 141953Z 04008G13KT 34/12 A3021 RMK A01 T03380124  RH  027%=      5-min Rain = 0
KHO1 141954Z 13007KT 34/12 A3021 RMK A01 T03360124  RH  028%=      5-min Rain = 0
KHO1 141955Z 13008KT 33/12 A3021 RMK A01 T03330122  RH  028%=      5-min Rain = 0
KHO1 141956Z 10008KT 33/12 A3021 RMK A01 T03340124  RH  028%=      5-min Rain = 0
KHO1 141957Z 10010KT 34/12 A3021 RMK A01 T03350123  RH  028%=      5-min Rain = 0
KHO1 141958Z 05007KT 34/12 A3021 RMK A01 T03380122  RH  027%=      5-min Rain = 0
KHO1 141959Z 06007KT 34/12 A3021 RMK A01 T03400122  RH  027%=      5-min Rain = 0
KHO1 142000Z 04006KT 34/12 A3021 RMK A01 T03410122  RH  027%=      5-min Rain = 0
KHO1 142001Z 06005KT 34/12 A3021 RMK A01 T03420123  RH  027%=      5-min Rain = 0
KHO1 142002Z 05006KT 34/12 A3021 RMK A01 T03420123  RH  027%=      5-min Rain = 0
KHO1 142003Z 05007KT 34/12 A3021 RMK A01 T03390122  RH  027%=      5-min Rain = 0
KHO1 142004Z 05008KT 34/12 A3021 RMK A01 T03380122  RH  027%=      5-min Rain = 0
KHO1 142005Z 04009KT 34/12 A3021 RMK A01 T03380121  RH  027%=      5-min Rain = 0
KHO1 142006Z 02005KT 34/12 A3021 RMK A01 T03350119  RH  027%=      5-min Rain = 0
KHO1 142007Z 33003KT 33/12 A3021 RMK A01 T03330119  RH  027%=      5-min Rain = 0
KHO1 142008Z 35003KT 33/12 A3021 RMK A01 T03310119  RH  027%=      5-min Rain = 0
KHO1 142009Z 13003KT 33/12 A3021 RMK A01 T03310121  RH  028%=      5-min Rain = 0
KHO1 142010Z 13006KT 34/12 A3021 RMK A01 T03360122  RH  027%=      5-min Rain = 0
KHO1 142011Z 13007KT 33/12 A302 RMK A01 T03340119  RH  027%=      5-min Rain = 0
KHO1 142012Z 12006KT 33/12 A302 RMK A01 T03290119  RH  028%=      5-min Rain = 0
KHO1 142013Z 11006KT 33/12 A302 RMK A01 T03300120  RH  028%=      5-min Rain = 0
KHO1 142014Z 10006KT 33/12 A302 RMK A01 T03340120  RH  027%=      5-min Rain = 0
KHO1 142015Z 05004G9KT 34/12 A302 RMK A01 T03370120  RH  027%=      5-min Rain = 0
KHO1 142016Z 03010KT 34/11 A302 RMK A01 T03370112  RH  026%=      5-min Rain = 0
KHO1 142017Z 02009KT 33/11 A302 RMK A01 T03330111  RH  026%=      5-min Rain = 0
KHO1 142018Z 01008KT 33/11 A302 RMK A01 T03290109  RH  026%=      5-min Rain = 0
KHO1 142019Z 02006KT 33/11 A302 RMK A01 T03290111  RH  026%=      5-min Rain = 0
KHO1 142020Z 03005KT 33/11 A302 RMK A01 T03340113  RH  026%=      5-min Rain = 0
KHO1 142021Z 06002KT 34/12 A302 RMK A01 T03380116  RH  026%=      5-min Rain = 0
KHO1 142022Z 03002KT 34/12 A302 RMK A01 T03420116  RH  025%=      5-min Rain = 0
KHO1 142023Z 02007KT 34/12 A3019 RMK A01 T03440115  RH  025%=      5-min Rain = 0
KHO1 142024Z 02008KT 34/12 A3019 RMK A01 T03430115  RH  025%=      5-min Rain = 0
KHO1 142025Z 03006KT 34/12 A3019 RMK A01 T03400116  RH  026%=      5-min Rain = 0
KHO1 142026Z 06006KT 34/12 A3019 RMK A01 T03390115  RH  026%=      5-min Rain = 0
KHO1 142027Z 09005KT 34/12 A3019 RMK A01 T03410116  RH  026%=      5-min Rain = 0
KHO1 142028Z 10007G16KT 34/12 A3019 RMK A01 T03430118  RH  025%=      5-min Rain = 0
KHO1 142029Z 08007KT 35/12 A3019 RMK A01 T03490117  RH  025%=      5-min Rain = 0
KHO1 142030Z 10008KT 35/11 A3019 RMK A01 T03510114  RH  024%=      5-min Rain = 0
KHO1 142031Z 06007KT 35/11 A3019 RMK A01 T03510113  RH  024%=      5-min Rain = 0
KHO1 142032Z 04011KT 35/11 A3019 RMK A01 T03510112  RH  023%=      5-min Rain = 0
KHO1 142033Z 04012G18KT 35/11 A3019 RMK A01 T03480110  RH  024%=      5-min Rain = 0
KHO1 142034Z 05012G17KT 34/11 A3019 RMK A01 T03430109  RH  024%=      5-min Rain = 0
KHO1 142035Z 05010G16KT 34/11 A3019 RMK A01 T03420111  RH  025%=      5-min Rain = 0
KHO1 142036Z 05009KT 34/11 A3019 RMK A01 T03420112  RH  025%=      5-min Rain = 0
KHO1 142037Z 04012KT 34/11 A3019 RMK A01 T03430113  RH  025%=      5-min Rain = 0
KHO1 142038Z 04009KT 34/11 A3019 RMK A01 T03420113  RH  025%=      5-min Rain = 0
KHO1 142039Z 04002KT 34/11 A3019 RMK A01 T03400113  RH  025%=      5-min Rain = 0
KHO1 142040Z 01004KT 34/11 A3018 RMK A01 T03380113  RH  025%=      5-min Rain = 0
KHO1 142041Z 04002KT 34/11 A3018 RMK A01 T03360114  RH  026%=      5-min Rain = 0
KHO1 142042Z 02006KT 34/11 A3018 RMK A01 T03370114  RH  026%=      5-min Rain = 0
KHO1 142043Z 06004KT 34/12 A3018 RMK A01 T03380115  RH  026%=      5-min Rain = 0
KHO1 142044Z 07002KT 34/12 A3018 RMK A01 T03390115  RH  026%=      5-min Rain = 0
KHO1 142045Z 11005KT 34/12 A3018 RMK A01 T03430116  RH  025%=      5-min Rain = 0
KHO1 142046Z 08004KT 35/12 A3018 RMK A01 T03480115  RH  024%=      5-min Rain = 0
KHO1 142047Z 09005KT 35/12 A3018 RMK A01 T03510116  RH  024%=      5-min Rain = 0
KHO1 142048Z 07004KT 35/12 A3018 RMK A01 T03530117  RH  024%=      5-min Rain = 0
KHO1 142049Z 11010KT 36/11 A3018 RMK A01 T03550114  RH  023%=      5-min Rain = 0
KHO1 142050Z 10006KT 35/11 A3018 RMK A01 T03540113  RH  023%=      5-min Rain = 0
KHO1 142051Z 10005KT 36/11 A3018 RMK A01 T03570114  RH  023%=      5-min Rain = 0
KHO1 142052Z 05006G11KT 36/11 A3018 RMK A01 T03600113  RH  023%=      5-min Rain = 0
KHO1 142053Z 03011KT 36/11 A3018 RMK A01 T03570109  RH  022%=      5-min Rain = 0
KHO1 142054Z 04009KT 35/11 A3018 RMK A01 T03490108  RH  023%=      5-min Rain = 0
KHO1 142055Z 02009KT 34/11 A3017 RMK A01 T03430106  RH  024%=      5-min Rain = 0
KHO1 142056Z 05007G12KT 34/11 A3017 RMK A01 T03390108  RH  024%=      5-min Rain = 0
KHO1 142057Z 05009KT 34/11 A3017 RMK A01 T03400108  RH  024%=      5-min Rain = 0
KHO1 142058Z 06008KT 34/11 A3017 RMK A01 T03420106  RH  024%=      5-min Rain = 0
KHO1 142059Z 07006KT 34/11 A3017 RMK A01 T03430107  RH  024%=      5-min Rain = 0
KHO1 142100Z 06005KT 35/11 A3017 RMK A01 T03470107  RH  023%=      5-min Rain = 0
KHO1 142101Z 03007KT 35/10 A3017 RMK A01 T03510103  RH  022%=      5-min Rain = 0
KHO1 142102Z 01010KT 35/10 A3017 RMK A01 T03510101  RH  022%=      5-min Rain = 0
KHO1 142103Z 00011KT 35/10 A3017 RMK A01 T03480103  RH  023%=      5-min Rain = 0
KHO1 142104Z 01009KT 35/10 A3017 RMK A01 T03450103  RH  023%=      5-min Rain = 0
KHO1 142105Z 00009KT 34/10 A3017 RMK A01 T03430103  RH  023%=      5-min Rain = 0
KHO1 142106Z 01007KT 34/10 A3017 RMK A01 T03420104  RH  023%=      5-min Rain = 0
KHO1 142107Z 02007KT 34/10 A3017 RMK A01 T03420103  RH  023%=      5-min Rain = 0
KHO1 142108Z 01006KT 34/10 A3017 RMK A01 T03400102  RH  023%=      5-min Rain = 0
KHO1 142109Z 36004KT 34/10 A3017 RMK A01 T03380102  RH  024%=      5-min Rain = 0
KHO1 142110Z 03003KT 34/10 A3017 RMK A01 T03380104  RH  024%=      5-min Rain = 0
KHO1 142111Z 01004KT 34/10 A3017 RMK A01 T03400102  RH  023%=      5-min Rain = 0
KHO1 142112Z 04003KT 34/10 A3017 RMK A01 T03420103  RH  023%=      5-min Rain = 0
KHO1 142113Z 05007KT 34/10 A3017 RMK A01 T03440102  RH  023%=      5-min Rain = 0
KHO1 142114Z 04009KT 35/10 A3017 RMK A01 T03470101  RH  022%=      5-min Rain = 0
KHO1 142115Z 04010KT 35/10 A3017 RMK A01 T03470102  RH  022%=      5-min Rain = 0
KHO1 142116Z 04012KT 35/10 A3017 RMK A01 T03470102  RH  023%=      5-min Rain = 0
KHO1 142117Z 04013KT 35/10 A3017 RMK A01 T03460100  RH  022%=      5-min Rain = 0
KHO1 142118Z 04013KT 35/10 A3017 RMK A01 T03450099  RH  022%=      5-min Rain = 0
KHO1 142119Z 03011KT 34/10 A3017 RMK A01 T03440099  RH  022%=      5-min Rain = 0
KHO1 142120Z 01010KT 34/10 A3017 RMK A01 T03440099  RH  022%=      5-min Rain = 0
KHO1 142121Z 02014KT 34/10 A3016 RMK A01 T03430097  RH  022%=      5-min Rain = 0
KHO1 142122Z 03015KT 34/10 A3016 RMK A01 T03430095  RH  022%=      5-min Rain = 0
KHO1 142123Z 04010G15KT 35/10 A3017 RMK A01 T03450095  RH  022%=      5-min Rain = 0
KHO1 142124Z 04008KT 35/10 A3017 RMK A01 T03470095  RH  022%=      5-min Rain = 0
KHO1 142125Z 06007KT 35/10 A3017 RMK A01 T03490096  RH  021%=      5-min Rain = 0
KHO1 142126Z 05005KT 35/10 A3017 RMK A01 T03510096  RH  021%=      5-min Rain = 0
KHO1 142127Z 08003KT 35/10 A3017 RMK A01 T03510097  RH  021%=      5-min Rain = 0
KHO1 142128Z 10003KT 35/10 A3017 RMK A01 T03490095  RH  021%=      5-min Rain = 0
KHO1 142129Z 02005KT 35/10 A3017 RMK A01 T03460097  RH  022%=      5-min Rain = 0
KHO1 142130Z 01004KT 35/10 A3017 RMK A01 T03480098  RH  022%=      5-min Rain = 0
KHO1 142131Z 35004KT 35/10 A3017 RMK A01 T03470098  RH  022%=      5-min Rain = 0
KHO1 142132Z 35004KT 35/10 A3017 RMK A01 T03460095  RH  022%=      5-min Rain = 0
KHO1 142133Z 35003KT 34/10 A3016 RMK A01 T03440095  RH  022%=      5-min Rain = 0
KHO1 142134Z 02005KT 34/10 A3016 RMK A01 T03430095  RH  022%=      5-min Rain = 0
KHO1 142135Z 04005KT 34/10 A3016 RMK A01 T03430095  RH  022%=      5-min Rain = 0
KHO1 142136Z 04003KT 34/10 A3016 RMK A01 T03430095  RH  022%=      5-min Rain = 0
KHO1 142137Z 05005KT 34/10 A3016 RMK A01 T03440096  RH  022%=      5-min Rain = 0
KHO1 142138Z 01002KT 34/10 A3016 RMK A01 T03430097  RH  022%=      5-min Rain = 0
KHO1 142139Z 03001KT 34/10 A3016 RMK A01 T03440098  RH  022%=      5-min Rain = 0
KHO1 142140Z 13001KT 35/10 A3016 RMK A01 T03450097  RH  022%=      5-min Rain = 0
KHO1 142141Z 09002KT 34/10 A3016 RMK A01 T03440097  RH  022%=      5-min Rain = 0
KHO1 142142Z 03004KT 35/10 A3016 RMK A01 T03470097  RH  022%=      5-min Rain = 0
KHO1 142143Z 05006G13KT 35/10 A3016 RMK A01 T03480097  RH  022%=      5-min Rain = 0
KHO1 142144Z 04010KT 35/10 A3016 RMK A01 T03500095  RH  021%=      5-min Rain = 0
KHO1 142145Z 04012KT 35/09 A3016 RMK A01 T03510094  RH  021%=      5-min Rain = 0
KHO1 142146Z 05009KT 35/09 A3016 RMK A01 T03510094  RH  021%=      5-min Rain = 0
KHO1 142147Z 07007KT 35/09 A3016 RMK A01 T03520093  RH  021%=      5-min Rain = 0
KHO1 142148Z 07007KT 35/09 A3016 RMK A01 T03540093  RH  020%=      5-min Rain = 0
KHO1 142149Z 06005KT 36/09 A3016 RMK A01 T03560093  RH  020%=      5-min Rain = 0
KHO1 142150Z 07005KT 36/09 A3016 RMK A01 T03580093  RH  020%=      5-min Rain = 0
KHO1 142151Z 07005KT 36/09 A3016 RMK A01 T03580092  RH  020%=      5-min Rain = 0
KHO1 142152Z 07005KT 36/09 A3016 RMK A01 T03580091  RH  020%=      5-min Rain = 0
KHO1 142153Z 07003KT 36/09 A3016 RMK A01 T03590092  RH  020%=      5-min Rain = 0
KHO1 142154Z 09001KT 36/09 A3016 RMK A01 T03580091  RH  020%=      5-min Rain = 0
KHO1 142155Z 07000KT 36/09 A3016 RMK A01 T03570089  RH  020%=      5-min Rain = 0
KHO1 142156Z 06003KT 36/09 A3016 RMK A01 T03570091  RH  020%=      5-min Rain = 0
KHO1 142157Z 04006KT 36/09 A3015 RMK A01 T03580091  RH  020%=      5-min Rain = 0
KHO1 142158Z 04006KT 36/09 A3015 RMK A01 T03550092  RH  020%=      5-min Rain = 0
KHO1 142159Z 02006KT 36/09 A3015 RMK A01 T03550091  RH  020%=      5-min Rain = 0
KHO1 142200Z 03005KT 35/09 A3015 RMK A01 T03520092  RH  020%=      5-min Rain = 0
KHO1 142201Z 03007KT 35/09 A3015 RMK A01 T03500091  RH  021%=      5-min Rain = 0
KHO1 142202Z 04006KT 35/09 A3015 RMK A01 T03480092  RH  021%=      5-min Rain = 0
KHO1 142203Z 05004KT 35/09 A3015 RMK A01 T03480093  RH  021%=      5-min Rain = 0
KHO1 142204Z 12005KT 35/09 A3015 RMK A01 T03500094  RH  021%=      5-min Rain = 0
KHO1 142205Z 12006KT 35/09 A3015 RMK A01 T03480092  RH  021%=      5-min Rain = 0
KHO1 142206Z 11006KT 35/09 A3015 RMK A01 T03480094  RH  021%=      5-min Rain = 0
KHO1 142207Z 13010KT 35/09 A3015 RMK A01 T03490092  RH  021%=      5-min Rain = 0
KHO1 142208Z 11007KT 35/09 A3015 RMK A01 T03480091  RH  021%=      5-min Rain = 0
KHO1 142209Z 09004KT 35/09 A3015 RMK A01 T03490093  RH  021%=      5-min Rain = 0
KHO1 142210Z 10010KT 35/10 A3014 RMK A01 T03530095  RH  021%=      5-min Rain = 0
KHO1 142211Z 11009KT 36/10 A3015 RMK A01 T03550096  RH  021%=      5-min Rain = 0
KHO1 142212Z 11006KT 36/10 A3015 RMK A01 T03570096  RH  020%=      5-min Rain = 0
KHO1 142213Z 07002KT 36/09 A3015 RMK A01 T03600094  RH  020%=      5-min Rain = 0
KHO1 142214Z 09005KT 36/09 A3015 RMK A01 T03630093  RH  019%=      5-min Rain = 0
KHO1 142215Z 09006KT 36/10 A3014 RMK A01 T03640095  RH  019%=      5-min Rain = 0
KHO1 142216Z 10013KT 37/09 A3014 RMK A01 T03650093  RH  019%=      5-min Rain = 0
KHO1 142217Z 10010G16KT 36/09 A3014 RMK A01 T03640090  RH  019%=      5-min Rain = 0
KHO1 142218Z 10013KT 36/09 A3014 RMK A01 T03630090  RH  019%=      5-min Rain = 0
KHO1 142219Z 10011KT 36/09 A3014 RMK A01 T03610089  RH  019%=      5-min Rain = 0
KHO1 142220Z 10009KT 36/09 A3014 RMK A01 T03610087  RH  019%=      5-min Rain = 0
KHO1 142221Z 09006KT 36/09 A3014 RMK A01 T03610087  RH  019%=      5-min Rain = 0
KHO1 142222Z 10008KT 36/09 A3014 RMK A01 T03610089  RH  019%=      5-min Rain = 0
KHO1 142223Z 10006KT 36/09 A3014 RMK A01 T03600089  RH  019%=      5-min Rain = 0
KHO1 142224Z 07007KT 36/09 A3014 RMK A01 T03600090  RH  019%=      5-min Rain = 0
KHO1 142225Z 06006KT 36/09 A3014 RMK A01 T03590092  RH  020%=      5-min Rain = 0
KHO1 142226Z 05007KT 36/09 A3014 RMK A01 T03580092  RH  020%=      5-min Rain = 0
KHO1 142227Z 05004KT 36/09 A3014 RMK A01 T03560093  RH  020%=      5-min Rain = 0
KHO1 142228Z 09007KT 36/09 A3014 RMK A01 T03560093  RH  020%=      5-min Rain = 0
KHO1 142229Z 10006KT 36/09 A3014 RMK A01 T03580092  RH  020%=      5-min Rain = 0
KHO1 142230Z 09007KT 36/09 A3014 RMK A01 T03590091  RH  019%=      5-min Rain = 0
KHO1 142231Z 10008KT 36/09 A3014 RMK A01 T03600089  RH  019%=      5-min Rain = 0
KHO1 142232Z 10008KT 36/09 A3013 RMK A01 T03610089  RH  019%=      5-min Rain = 0
KHO1 142233Z 12006KT 36/09 A3013 RMK A01 T03590087  RH  019%=      5-min Rain = 0
KHO1 142234Z 13007KT 35/09 A3013 RMK A01 T03540087  RH  020%=      5-min Rain = 0
KHO1 142235Z 11008KT 35/09 A3013 RMK A01 T03470087  RH  020%=      5-min Rain = 0
KHO1 142236Z 10010KT 35/09 A3013 RMK A01 T03480088  RH  020%=      5-min Rain = 0
KHO1 142237Z 10006KT 35/09 A3013 RMK A01 T03510088  RH  020%=      5-min Rain = 0
KHO1 142238Z 12007KT 35/09 A3013 RMK A01 T03520088  RH  020%=      5-min Rain = 0
KHO1 142239Z 15002KT 35/09 A3013 RMK A01 T03490088  RH  020%=      5-min Rain = 0
KHO1 142240Z 15002KT 35/09 A3013 RMK A01 T03480089  RH  021%=      5-min Rain = 0
KHO1 142241Z 04006KT 35/09 A3013 RMK A01 T03500092  RH  021%=      5-min Rain = 0
KHO1 142242Z 07007KT 35/09 A3013 RMK A01 T03510094  RH  021%=      5-min Rain = 0
KHO1 142243Z 07007KT 35/09 A3013 RMK A01 T03530094  RH  021%=      5-min Rain = 0
KHO1 142244Z 08006KT 36/09 A3013 RMK A01 T03550094  RH  020%=      5-min Rain = 0
KHO1 142245Z 05006KT 36/09 A3013 RMK A01 T03570093  RH  020%=      5-min Rain = 0
KHO1 142246Z 07004KT 36/09 A3013 RMK A01 T03570093  RH  020%=      5-min Rain = 0
KHO1 142247Z 10008KT 36/09 A3013 RMK A01 T03570092  RH  020%=      5-min Rain = 0
KHO1 142248Z 09008KT 36/09 A3013 RMK A01 T03580091  RH  020%=      5-min Rain = 0
KHO1 142249Z 08007KT 36/09 A3013 RMK A01 T03590091  RH  020%=      5-min Rain = 0
KHO1 142250Z 08007KT 36/09 A3013 RMK A01 T03600091  RH  019%=      5-min Rain = 0
KHO1 142251Z 08006KT 36/09 A3013 RMK A01 T03600091  RH  019%=      5-min Rain = 0
KHO1 142252Z 11010KT 36/09 A3013 RMK A01 T03600090  RH  019%=      5-min Rain = 0
KHO1 142253Z 09009G15KT 36/09 A3013 RMK A01 T03600089  RH  019%=      5-min Rain = 0
KHO1 142254Z 07006KT 36/09 A3013 RMK A01 T03600090  RH  019%=      5-min Rain = 0
KHO1 142255Z 09006KT 36/09 A3013 RMK A01 T03600091  RH  019%=      5-min Rain = 0
KHO1 142256Z 09007G12KT 36/09 A3014 RMK A01 T03610092  RH  019%=      5-min Rain = 0
KHO1 142257Z 10010KT 36/09 A3013 RMK A01 T03610090  RH  019%=      5-min Rain = 0
KHO1 142258Z 10009KT 36/09 A3013 RMK A01 T03600089  RH  019%=      5-min Rain = 0
KHO1 142259Z 08005KT 36/09 A3013 RMK A01 T03580088  RH  019%=      5-min Rain = 0
KHO1 142300Z 11007G14KT 36/09 A3013 RMK A01 T03570089  RH  020%=      5-min Rain = 0
KHO1 142301Z 09007G12KT 36/09 A3013 RMK A01 T03550088  RH  020%=      5-min Rain = 0
KHO1 142302Z 08004KT 36/09 A3013 RMK A01 T03560089  RH  020%=      5-min Rain = 0
KHO1 142303Z 08005KT 36/09 A3013 RMK A01 T03580090  RH  019%=      5-min Rain = 0
KHO1 142304Z 07006KT 36/09 A3013 RMK A01 T03580094  RH  020%=      5-min Rain = 0
KHO1 142305Z 06008KT 36/10 A3013 RMK A01 T03570099  RH  021%=      5-min Rain = 0
KHO1 142306Z 06008KT 36/10 A3013 RMK A01 T03550099  RH  021%=      5-min Rain = 0
KHO1 142307Z 07007KT 35/10 A3013 RMK A01 T03530100  RH  021%=      5-min Rain = 0
KHO1 142308Z 13008KT 35/10 A3013 RMK A01 T03520100  RH  022%=      5-min Rain = 0
KHO1 142309Z 11008KT 35/10 A3013 RMK A01 T03490099  RH  022%=      5-min Rain = 0
KHO1 142310Z 11011KT 35/10 A3013 RMK A01 T03490098  RH  022%=      5-min Rain = 0
KHO1 142311Z 11010G15KT 35/10 A3013 RMK A01 T03480098  RH  022%=      5-min Rain = 0
KHO1 142312Z 08009KT 35/10 A3013 RMK A01 T03490098  RH  022%=      5-min Rain = 0
KHO1 142313Z 09009KT 35/10 A3013 RMK A01 T03500098  RH  021%=      5-min Rain = 0
KHO1 142314Z 09010KT 35/10 A3013 RMK A01 T03520098  RH  021%=      5-min Rain = 0
KHO1 142315Z 08006KT 35/10 A3013 RMK A01 T03520099  RH  021%=      5-min Rain = 0
KHO1 142316Z 09007KT 35/10 A3013 RMK A01 T03530099  RH  021%=      5-min Rain = 0
KHO1 142317Z 09006G11KT 35/10 A3013 RMK A01 T03540099  RH  021%=      5-min Rain = 0
KHO1 142318Z 07004KT 36/10 A3013 RMK A01 T03550099  RH  021%=      5-min Rain = 0
KHO1 142319Z 08008KT 36/10 A3013 RMK A01 T03550099  RH  021%=      5-min Rain = 0
KHO1 142320Z 08008KT 36/10 A3013 RMK A01 T03550098  RH  021%=      5-min Rain = 0
KHO1 142321Z 08010KT 35/10 A3013 RMK A01 T03540096  RH  021%=      5-min Rain = 0
KHO1 142322Z 10007KT 35/10 A3013 RMK A01 T03530096  RH  021%=      5-min Rain = 0
KHO1 142323Z 09007KT 35/10 A3013 RMK A01 T03520097  RH  021%=      5-min Rain = 0
KHO1 142324Z 09008KT 35/10 A3013 RMK A01 T03530095  RH  021%=      5-min Rain = 0
KHO1 142325Z 09008KT 35/10 A3013 RMK A01 T03530095  RH  021%=      5-min Rain = 0
KHO1 142326Z 08008KT 35/10 A3013 RMK A01 T03530096  RH  021%=      5-min Rain = 0
KHO1 142327Z 09006KT 35/10 A3012 RMK A01 T03530096  RH  021%=      5-min Rain = 0
KHO1 142328Z 08006KT 35/10 A3012 RMK A01 T03530097  RH  021%=      5-min Rain = 0
KHO1 142329Z 07006KT 35/10 A3012 RMK A01 T03540097  RH  021%=      5-min Rain = 0
KHO1 142330Z 09009KT 35/10 A3012 RMK A01 T03540097  RH  021%=      5-min Rain = 0
KHO1 142331Z 10009KT 35/10 A3012 RMK A01 T03540096  RH  021%=      5-min Rain = 0
KHO1 142332Z 09008KT 35/10 A3012 RMK A01 T03540095  RH  021%=      5-min Rain = 0
KHO1 142333Z 10006KT 35/09 A3012 RMK A01 T03530094  RH  021%=      5-min Rain = 0
KHO1 142334Z 09009KT 35/09 A3012 RMK A01 T03540094  RH  021%=      5-min Rain = 0
KHO1 142335Z 09011KT 35/09 A3012 RMK A01 T03540092  RH  020%=      5-min Rain = 0
KHO1 142336Z 09008KT 35/09 A3012 RMK A01 T03530092  RH  020%=      5-min Rain = 0
KHO1 142337Z 08009KT 35/09 A3012 RMK A01 T03530091  RH  020%=      5-min Rain = 0
KHO1 142338Z 09010G15KT 35/09 A3013 RMK A01 T03530091  RH  020%=      5-min Rain = 0
KHO1 142339Z 10010G16KT 35/09 A3013 RMK A01 T03530089  RH  020%=      5-min Rain = 0
KHO1 142340Z 09010KT 35/09 A3013 RMK A01 T03520089  RH  020%=      5-min Rain = 0
KHO1 142341Z 09006KT 35/09 A3013 RMK A01 T03500089  RH  020%=      5-min Rain = 0
KHO1 142342Z 12007KT 35/09 A3013 RMK A01 T03490089  RH  020%=      5-min Rain = 0
KHO1 142343Z 09006KT 35/09 A3013 RMK A01 T03460090  RH  021%=      5-min Rain = 0
KHO1 142344Z 09007KT 35/09 A3013 RMK A01 T03480091  RH  021%=      5-min Rain = 0
KHO1 142345Z 09008KT 35/09 A3013 RMK A01 T03500090  RH  020%=      5-min Rain = 0
KHO1 142346Z 08007KT 35/09 A3013 RMK A01 T03500090  RH  020%=      5-min Rain = 0
KHO1 142347Z 09008KT 35/09 A3013 RMK A01 T03510090  RH  020%=      5-min Rain = 0
KHO1 142348Z 09008KT 35/09 A3013 RMK A01 T03510089  RH  020%=      5-min Rain = 0
KHO1 142349Z 10011KT 35/09 A3013 RMK A01 T03490088  RH  020%=      5-min Rain = 0
KHO1 142350Z 10011KT 35/09 A3013 RMK A01 T03480088  RH  020%=      5-min Rain = 0
KHO1 142351Z 10009KT 35/09 A3013 RMK A01 T03470086  RH  020%=      5-min Rain = 0
KHO1 142352Z 11006KT 35/09 A3013 RMK A01 T03460085  RH  020%=      5-min Rain = 0
KHO1 142353Z 13006KT 34/08 A3013 RMK A01 T03430084  RH  020%=      5-min Rain = 0
KHO1 142354Z 11008KT 34/09 A3013 RMK A01 T03400085  RH  021%=      5-min Rain = 0
KHO1 142355Z 12009KT 34/09 A3013 RMK A01 T03390085  RH  021%=      5-min Rain = 0
KHO1 142356Z 13009KT 34/09 A3013 RMK A01 T03370085  RH  021%=      5-min Rain = 0
KHO1 142357Z 12010KT 34/09 A3013 RMK A01 T03350085  RH  021%=      5-min Rain = 0
KHO1 142358Z 08006G11KT 34/09 A3013 RMK A01 T03360086  RH  021%=      5-min Rain = 0
KHO1 142359Z 08006KT 34/09 A3013 RMK A01 T03390086  RH  021%=      5-min Rain = 0
KHO1 150000Z 10008KT 34/08 A3013 RMK A01 T03410084  RH  021%=      5-min Rain = 0
KHO1 150001Z 09005KT 34/08 A3013 RMK A01 T03430084  RH  020%=      5-min Rain = 0
KHO1 150002Z 09007KT 34/08 A3013 RMK A01 T03440084  RH  020%=      5-min Rain = 0
KHO1 150003Z 08007KT 35/08 A3013 RMK A01 T03460083  RH  020%=      5-min Rain = 0
KHO1 150004Z 07005KT 35/08 A3013 RMK A01 T03460081  RH  020%=      5-min Rain = 0
KHO1 150005Z 08004KT 35/08 A3013 RMK A01 T03450081  RH  020%=      5-min Rain = 0
KHO1 150006Z 08006KT 34/08 A3013 RMK A01 T03440082  RH  020%=      5-min Rain = 0
KHO1 150007Z 10009KT 34/08 A3013 RMK A01 T03430080  RH  020%=      5-min Rain = 0
KHO1 150008Z 09008KT 34/08 A3013 RMK A01 T03400080  RH  020%=      5-min Rain = 0
KHO1 150009Z 08006KT 34/08 A3013 RMK A01 T03380080  RH  020%=      5-min Rain = 0
KHO1 150010Z 09005KT 34/08 A3013 RMK A01 T03370081  RH  021%=      5-min Rain = 0
KHO1 150011Z 09006KT 34/08 A3013 RMK A01 T03360081  RH  021%=      5-min Rain = 0
KHO1 150012Z 10006KT 34/08 A3013 RMK A01 T03360081  RH  021%=      5-min Rain = 0
KHO1 150013Z 09005KT 34/08 A3013 RMK A01 T03360081  RH  021%=      5-min Rain = 0
KHO1 150014Z 09007KT 34/08 A3013 RMK A01 T03360081  RH  021%=      5-min Rain = 0
KHO1 150015Z 09005KT 34/08 A3013 RMK A01 T03360080  RH  021%=      5-min Rain = 0
KHO1 150016Z 08004KT 34/08 A3013 RMK A01 T03370079  RH  020%=      5-min Rain = 0
KHO1 150017Z 07004KT 34/08 A3013 RMK A01 T03390080  RH  020%=      5-min Rain = 0
KHO1 150018Z 08005KT 34/08 A3013 RMK A01 T03400079  RH  020%=      5-min Rain = 0
KHO1 150019Z 06005KT 34/08 A3013 RMK A01 T03410078  RH  020%=      5-min Rain = 0
KHO1 150020Z 07005KT 34/08 A3013 RMK A01 T03410078  RH  020%=      5-min Rain = 0
KHO1 150021Z 07005KT 34/08 A3013 RMK A01 T03420079  RH  020%=      5-min Rain = 0
KHO1 150022Z 10006KT 34/08 A3013 RMK A01 T03430080  RH  020%=      5-min Rain = 0
KHO1 150023Z 10006KT 34/08 A3013 RMK A01 T03430078  RH  020%=      5-min Rain = 0
KHO1 150024Z 10006KT 34/08 A3013 RMK A01 T03430076  RH  019%=      5-min Rain = 0
KHO1 150025Z 11011KT 34/07 A3013 RMK A01 T03420074  RH  019%=      5-min Rain = 0
KHO1 150026Z 11010KT 34/07 A3013 RMK A01 T03410074  RH  019%=      5-min Rain = 0
KHO1 150027Z 11009KT 34/07 A3013 RMK A01 T03390073  RH  019%=      5-min Rain = 0
KHO1 150028Z 10007KT 34/07 A3013 RMK A01 T03390074  RH  019%=      5-min Rain = 0
KHO1 150029Z 09005KT 34/07 A3013 RMK A01 T03400074  RH  019%=      5-min Rain = 0
KHO1 150030Z 09007KT 34/07 A3013 RMK A01 T03410073  RH  019%=      5-min Rain = 0
KHO1 150031Z 10007KT 34/07 A3013 RMK A01 T03410074  RH  019%=      5-min Rain = 0
KHO1 150032Z 10008KT 34/07 A3014 RMK A01 T03420074  RH  019%=      5-min Rain = 0
KHO1 150033Z 11010KT 34/07 A3014 RMK A01 T03410074  RH  019%=      5-min Rain = 0
KHO1 150034Z 12011KT 34/07 A3013 RMK A01 T03390074  RH  019%=      5-min Rain = 0
KHO1 150035Z 10009KT 34/07 A3014 RMK A01 T03360074  RH  020%=      5-min Rain = 0
KHO1 150036Z 10008KT 34/08 A3014 RMK A01 T03360075  RH  020%=      5-min Rain = 0
KHO1 150037Z 10007KT 34/08 A3013 RMK A01 T03370075  RH  020%=      5-min Rain = 0
KHO1 150038Z 10007KT 34/07 A3013 RMK A01 T03370074  RH  020%=      5-min Rain = 0
KHO1 150039Z 11007KT 34/07 A3013 RMK A01 T03360074  RH  020%=      5-min Rain = 0
KHO1 150040Z 11009KT 33/07 A3013 RMK A01 T03340074  RH  020%=      5-min Rain = 0
KHO1 150041Z 13009KT 33/07 A3013 RMK A01 T03320073  RH  020%=      5-min Rain = 0
KHO1 150042Z 11008KT 33/07 A3014 RMK A01 T03300073  RH  020%=      5-min Rain = 0
KHO1 150043Z 11009KT 33/07 A3014 RMK A01 T03300074  RH  020%=      5-min Rain = 0
KHO1 150044Z 11009KT 33/08 A3014 RMK A01 T03300075  RH  021%=      5-min Rain = 0
KHO1 150045Z 11007KT 33/07 A3014 RMK A01 T03290074  RH  021%=      5-min Rain = 0
KHO1 150046Z 12006KT 33/07 A3014 RMK A01 T03290074  RH  021%=      5-min Rain = 0
KHO1 150047Z 13008KT 33/07 A3014 RMK A01 T03290073  RH  021%=      5-min Rain = 0
KHO1 150048Z 12008KT 33/07 A3014 RMK A01 T03270073  RH  021%=      5-min Rain = 0
KHO1 150049Z 13007KT 33/07 A3014 RMK A01 T03270074  RH  021%=      5-min Rain = 0
KHO1 150050Z 13008KT 33/07 A3014 RMK A01 T03260074  RH  021%=      5-min Rain = 0
KHO1 150051Z 12007KT 33/07 A3014 RMK A01 T03250074  RH  021%=      5-min Rain = 0
KHO1 150052Z 12007KT 33/07 A3014 RMK A01 T03250074  RH  021%=      5-min Rain = 0
KHO1 150053Z 11008KT 33/07 A3014 RMK A01 T03250074  RH  021%=      5-min Rain = 0
KHO1 150054Z 12007KT 33/07 A3014 RMK A01 T03250074  RH  021%=      5-min Rain = 0
KHO1 150055Z 11006KT 32/08 A3014 RMK A01 T03240075  RH  021%=      5-min Rain = 0
KHO1 150056Z 10007KT 33/07 A3014 RMK A01 T03250074  RH  021%=      5-min Rain = 0
KHO1 150057Z 10005KT 33/07 A3014 RMK A01 T03260072  RH  021%=      5-min Rain = 0
KHO1 150058Z 10007KT 33/07 A3014 RMK A01 T03270072  RH  021%=      5-min Rain = 0
KHO1 150059Z 10007KT 33/07 A3014 RMK A01 T03280072  RH  020%=      5-min Rain = 0
KHO1 150100Z 09005KT 33/07 A3014 RMK A01 T03280073  RH  021%=      5-min Rain = 0
KHO1 150101Z 10006KT 33/07 A3014 RMK A01 T03280072  RH  020%=      5-min Rain = 0
KHO1 150102Z 08004KT 33/07 A3014 RMK A01 T03270073  RH  021%=      5-min Rain = 0
KHO1 150103Z 09004KT 33/07 A3014 RMK A01 T03270074  RH  021%=      5-min Rain = 0
KHO1 150104Z 08004KT 33/07 A3014 RMK A01 T03270074  RH  021%=      5-min Rain = 0
KHO1 150105Z 09005KT 33/07 A3015 RMK A01 T03270074  RH  021%=      5-min Rain = 0
KHO1 150106Z 10006KT 33/07 A3015 RMK A01 T03260074  RH  021%=      5-min Rain = 0
KHO1 150107Z 10004KT 33/07 A3015 RMK A01 T03260074  RH  021%=      5-min Rain = 0
KHO1 150108Z 10006KT 33/07 A3015 RMK A01 T03250074  RH  021%=      5-min Rain = 0
KHO1 150109Z 10006KT 32/07 A3015 RMK A01 T03240074  RH  021%=      5-min Rain = 0
KHO1 150110Z 10005KT 32/08 A3015 RMK A01 T03240075  RH  021%=      5-min Rain = 0
KHO1 150111Z 09004KT 32/08 A3015 RMK A01 T03230075  RH  021%=      5-min Rain = 0
KHO1 150112Z 08004KT 32/08 A3015 RMK A01 T03220075  RH  022%=      5-min Rain = 0
KHO1 150113Z 09004KT 32/08 A3015 RMK A01 T03210075  RH  022%=      5-min Rain = 0
KHO1 150114Z 08003KT 32/08 A3015 RMK A01 T03210076  RH  022%=      5-min Rain = 0
KHO1 150115Z 08004KT 32/08 A3015 RMK A01 T03200076  RH  022%=      5-min Rain = 0
KHO1 150116Z 09003KT 32/08 A3015 RMK A01 T03200076  RH  022%=      5-min Rain = 0
KHO1 150117Z 09004KT 32/08 A3015 RMK A01 T03190076  RH  022%=      5-min Rain = 0
KHO1 150118Z 09005KT 32/08 A3015 RMK A01 T03180076  RH  022%=      5-min Rain = 0
KHO1 150119Z 09003KT 32/08 A3015 RMK A01 T03170076  RH  022%=      5-min Rain = 0
KHO1 150120Z 08004KT 32/08 A3015 RMK A01 T03170076  RH  022%=      5-min Rain = 0
KHO1 150121Z 08004KT 32/08 A3015 RMK A01 T03160076  RH  022%=      5-min Rain = 0
KHO1 150122Z 08004KT 32/08 A3015 RMK A01 T03150077  RH  023%=      5-min Rain = 0
KHO1 150123Z 09005KT 32/08 A3015 RMK A01 T03150076  RH  023%=      5-min Rain = 0
KHO1 150124Z 09004KT 31/08 A3015 RMK A01 T03140076  RH  023%=      5-min Rain = 0
KHO1 150125Z 09004KT 31/08 A3015 RMK A01 T03140077  RH  023%=      5-min Rain = 0
KHO1 150126Z 09004KT 31/08 A3015 RMK A01 T03130077  RH  023%=      5-min Rain = 0
KHO1 150127Z 09004KT 31/08 A3015 RMK A01 T03130077  RH  023%=      5-min Rain = 0
KHO1 150128Z 09004KT 31/08 A3015 RMK A01 T03130077  RH  023%=      5-min Rain = 0
KHO1 150129Z 09005KT 31/08 A3015 RMK A01 T03120077  RH  023%=      5-min Rain = 0
KHO1 150130Z 09004KT 31/08 A3015 RMK A01 T03120077  RH  023%=      5-min Rain = 0
KHO1 150131Z 09004KT 31/08 A3015 RMK A01 T03120077  RH  023%=      5-min Rain = 0
KHO1 150132Z 09004KT 31/08 A3016 RMK A01 T03120077  RH  023%=      5-min Rain = 0
KHO1 150133Z 09003KT 31/08 A3016 RMK A01 T03110077  RH  023%=      5-min Rain = 0
KHO1 150134Z 09005KT 31/08 A3016 RMK A01 T03110077  RH  023%=      5-min Rain = 0
KHO1 150135Z 09004KT 31/08 A3016 RMK A01 T03100077  RH  023%=      5-min Rain = 0
KHO1 150136Z 09004KT 31/08 A3016 RMK A01 T03100076  RH  023%=      5-min Rain = 0
KHO1 150137Z 10005KT 31/08 A3016 RMK A01 T03100077  RH  023%=      5-min Rain = 0
KHO1 150138Z 10006KT 31/08 A3016 RMK A01 T03090077  RH  023%=      5-min Rain = 0
KHO1 150139Z 10005KT 31/08 A3016 RMK A01 T03080077  RH  024%=      5-min Rain = 0
KHO1 150140Z 10005KT 31/08 A3016 RMK A01 T03080077  RH  024%=      5-min Rain = 0
KHO1 150141Z 10006KT 31/08 A3016 RMK A01 T03070077  RH  024%=      5-min Rain = 0
KHO1 150142Z 10007KT 31/08 A3016 RMK A01 T03070077  RH  024%=      5-min Rain = 0
KHO1 150143Z 10007KT 31/08 A3016 RMK A01 T03060077  RH  024%=      5-min Rain = 0
KHO1 150144Z 10008KT 31/08 A3016 RMK A01 T03060077  RH  024%=      5-min Rain = 0
KHO1 150145Z 10007KT 31/08 A3016 RMK A01 T03070078  RH  024%=      5-min Rain = 0
KHO1 150146Z 10007KT 31/08 A3016 RMK A01 T03070078  RH  024%=      5-min Rain = 0
KHO1 150147Z 10006KT 31/08 A3016 RMK A01 T03060078  RH  024%=      5-min Rain = 0
KHO1 150148Z 10006KT 31/08 A3016 RMK A01 T03060078  RH  024%=      5-min Rain = 0
KHO1 150149Z 10005KT 31/08 A3017 RMK A01 T03060078  RH  024%=      5-min Rain = 0
KHO1 150150Z 10004KT 31/08 A3017 RMK A01 T03050078  RH  024%=      5-min Rain = 0
KHO1 150151Z 10004KT 31/08 A3017 RMK A01 T03050079  RH  024%=      5-min Rain = 0
KHO1 150152Z 10006KT 30/08 A3017 RMK A01 T03040079  RH  025%=      5-min Rain = 0
KHO1 150153Z 10006KT 30/08 A3017 RMK A01 T03040080  RH  025%=      5-min Rain = 0
KHO1 150154Z 10006KT 30/08 A3017 RMK A01 T03040080  RH  025%=      5-min Rain = 0
KHO1 150155Z 10006KT 30/08 A3017 RMK A01 T03040081  RH  025%=      5-min Rain = 0
KHO1 150156Z 10005KT 30/08 A3017 RMK A01 T03030082  RH  025%=      5-min Rain = 0
KHO1 150157Z 10005KT 30/08 A3017 RMK A01 T03030082  RH  025%=      5-min Rain = 0
KHO1 150158Z 10006KT 30/08 A3017 RMK A01 T03030082  RH  025%=      5-min Rain = 0
KHO1 150159Z 10006KT 30/08 A3017 RMK A01 T03030082  RH  025%=      5-min Rain = 0
KHO1 150200Z 10007KT 30/08 A3017 RMK A01 T03020083  RH  025%=      5-min Rain = 0
KHO1 150201Z 10007KT 30/08 A3017 RMK A01 T03020084  RH  026%=      5-min Rain = 0
KHO1 150202Z 10007KT 30/08 A3017 RMK A01 T03020084  RH  026%=      5-min Rain = 0
KHO1 150203Z 10005KT 30/08 A3017 RMK A01 T03020084  RH  026%=      5-min Rain = 0
KHO1 150204Z 10005KT 30/08 A3017 RMK A01 T03020084  RH  026%=      5-min Rain = 0
KHO1 150205Z 11005KT 30/08 A3017 RMK A01 T03010084  RH  026%=      5-min Rain = 0
KHO1 150206Z 11005KT 30/09 A3017 RMK A01 T03010085  RH  026%=      5-min Rain = 0
KHO1 150207Z 11004KT 30/09 A3017 RMK A01 T03000085  RH  026%=      5-min Rain = 0
KHO1 150208Z 11005KT 30/09 A3017 RMK A01 T03000085  RH  026%=      5-min Rain = 0
KHO1 150209Z 10005KT 30/09 A3017 RMK A01 T02990086  RH  026%=      5-min Rain = 0
KHO1 150210Z 10005KT 30/09 A3017 RMK A01 T02990086  RH  026%=      5-min Rain = 0
KHO1 150211Z 10004KT 30/09 A3017 RMK A01 T02980086  RH  027%=      5-min Rain = 0
KHO1 150212Z 10004KT 30/09 A3017 RMK A01 T02980086  RH  027%=      5-min Rain = 0
KHO1 150213Z 09003KT 30/09 A3017 RMK A01 T02980086  RH  027%=      5-min Rain = 0
KHO1 150214Z 09004KT 30/09 A3017 RMK A01 T02970086  RH  027%=      5-min Rain = 0
KHO1 150215Z 10004KT 30/09 A3017 RMK A01 T02970087  RH  027%=      5-min Rain = 0
KHO1 150216Z 09004KT 30/09 A3018 RMK A01 T02970087  RH  027%=      5-min Rain = 0
KHO1 150217Z 09004KT 30/09 A3017 RMK A01 T02970087  RH  027%=      5-min Rain = 0
KHO1 150218Z 09004KT 30/09 A3018 RMK A01 T02960087  RH  027%=      5-min Rain = 0
KHO1 150219Z 09003KT 30/09 A3018 RMK A01 T02960087  RH  027%=      5-min Rain = 0
KHO1 150220Z 09004KT 30/09 A3018 RMK A01 T02960087  RH  027%=      5-min Rain = 0
KHO1 150221Z 10004KT 30/09 A3018 RMK A01 T02950087  RH  027%=      5-min Rain = 0
KHO1 150222Z 10003KT 30/09 A3018 RMK A01 T02950087  RH  027%=      5-min Rain = 0
KHO1 150223Z 10005KT 29/09 A3018 RMK A01 T02940087  RH  027%=      5-min Rain = 0
KHO1 150224Z 10006KT 29/09 A3018 RMK A01 T02940086  RH  027%=      5-min Rain = 0
KHO1 150225Z 10006KT 29/09 A3018 RMK A01 T02930087  RH  027%=      5-min Rain = 0
KHO1 150226Z 10005KT 29/09 A3018 RMK A01 T02930087  RH  028%=      5-min Rain = 0
KHO1 150227Z 10006KT 29/09 A3018 RMK A01 T02930087  RH  028%=      5-min Rain = 0
KHO1 150228Z 11005KT 29/09 A3018 RMK A01 T02920087  RH  028%=      5-min Rain = 0
KHO1 150229Z 10005KT 29/09 A3018 RMK A01 T02920087  RH  028%=      5-min Rain = 0
KHO1 150230Z 11005KT 29/09 A3018 RMK A01 T02920087  RH  028%=      5-min Rain = 0
KHO1 150231Z 11005KT 29/09 A3018 RMK A01 T02910087  RH  028%=      5-min Rain = 0
KHO1 150232Z 11006KT 29/09 A3018 RMK A01 T02910088  RH  028%=      5-min Rain = 0
KHO1 150233Z 11006KT 29/09 A3018 RMK A01 T02910088  RH  028%=      5-min Rain = 0
KHO1 150234Z 11006KT 29/09 A3018 RMK A01 T02910089  RH  028%=      5-min Rain = 0
KHO1 150235Z 11006KT 29/09 A3018 RMK A01 T02920089  RH  028%=      5-min Rain = 0
KHO1 150236Z 11005KT 29/09 A3018 RMK A01 T02920089  RH  028%=      5-min Rain = 0
KHO1 150237Z 11005KT 29/09 A3018 RMK A01 T02920089  RH  028%=      5-min Rain = 0
KHO1 150238Z 11005KT 29/09 A3018 RMK A01 T02910089  RH  028%=      5-min Rain = 0
KHO1 150239Z 10004KT 29/09 A3018 RMK A01 T02910089  RH  028%=      5-min Rain = 0
KHO1 150240Z 10005KT 29/09 A3018 RMK A01 T02910089  RH  028%=      5-min Rain = 0
KHO1 150241Z 10004KT 29/09 A3018 RMK A01 T02900089  RH  028%=      5-min Rain = 0
KHO1 150242Z 10004KT 29/09 A3018 RMK A01 T02900089  RH  028%=      5-min Rain = 0
KHO1 150243Z 09002KT 29/09 A3018 RMK A01 T02900089  RH  028%=      5-min Rain = 0
KHO1 150244Z 10003KT 29/09 A3018 RMK A01 T02890089  RH  028%=      5-min Rain = 0
KHO1 150245Z 10003KT 29/09 A3018 RMK A01 T02890088  RH  029%=      5-min Rain = 0
KHO1 150246Z 10004KT 29/09 A3018 RMK A01 T02880089  RH  029%=      5-min Rain = 0
KHO1 150247Z 09004KT 29/09 A3018 RMK A01 T02880089  RH  029%=      5-min Rain = 0
KHO1 150248Z 10004KT 29/09 A3018 RMK A01 T02880089  RH  029%=      5-min Rain = 0
KHO1 150249Z 10005KT 29/09 A3018 RMK A01 T02880089  RH  029%=      5-min Rain = 0
KHO1 150250Z 10005KT 29/09 A3018 RMK A01 T02870089  RH  029%=      5-min Rain = 0
KHO1 150251Z 10006KT 29/09 A3018 RMK A01 T02870089  RH  029%=      5-min Rain = 0
KHO1 150252Z 11005KT 29/09 A3018 RMK A01 T02870089  RH  029%=      5-min Rain = 0
KHO1 150253Z 11005KT 29/09 A3018 RMK A01 T02870089  RH  029%=      5-min Rain = 0
KHO1 150254Z 11005KT 29/09 A3018 RMK A01 T02860089  RH  029%=      5-min Rain = 0
KHO1 150255Z 12005KT 29/09 A3018 RMK A01 T02860089  RH  029%=      5-min Rain = 0
KHO1 150256Z 12005KT 29/09 A3018 RMK A01 T02860090  RH  029%=      5-min Rain = 0
KHO1 150257Z 13005KT 29/09 A3019 RMK A01 T02860090  RH  029%=      5-min Rain = 0
KHO1 150258Z 14006KT 29/09 A3019 RMK A01 T02860090  RH  029%=      5-min Rain = 0
KHO1 150259Z 16008KT 29/09 A3019 RMK A01 T02850090  RH  030%=      5-min Rain = 0
KHO1 150300Z 18009KT 29/10 A3019 RMK A01 T02860095  RH  030%=      5-min Rain = 0
KHO1 150301Z 18009KT 29/12 A3019 RMK A01 T02860115  RH  035%=      5-min Rain = 0
KHO1 150302Z 18008KT 28/13 A3019 RMK A01 T02840125  RH  037%=      5-min Rain = 0
KHO1 150303Z 18008KT 28/13 A3019 RMK A01 T02820131  RH  039%=      5-min Rain = 0
KHO1 150304Z 18008KT 28/13 A3019 RMK A01 T02810134  RH  040%=      5-min Rain = 0
KHO1 150305Z 17009KT 28/14 A3019 RMK A01 T02800136  RH  041%=      5-min Rain = 0
KHO1 150306Z 17010KT 28/14 A302 RMK A01 T02790141  RH  043%=      5-min Rain = 0
KHO1 150307Z 18011KT 28/14 A302 RMK A01 T02770144  RH  044%=      5-min Rain = 0
KHO1 150308Z 18009KT 28/15 A302 RMK A01 T02770147  RH  045%=      5-min Rain = 0
KHO1 150309Z 19009KT 28/15 A302 RMK A01 T02760151  RH  046%=      5-min Rain = 0
KHO1 150310Z 20011KT 28/15 A302 RMK A01 T02750153  RH  047%=      5-min Rain = 0
KHO1 150311Z 19010KT 28/15 A302 RMK A01 T02750154  RH  048%=      5-min Rain = 0
KHO1 150312Z 19010KT 27/16 A302 RMK A01 T02740155  RH  048%=      5-min Rain = 0
KHO1 150313Z 19010KT 27/16 A302 RMK A01 T02740156  RH  048%=      5-min Rain = 0
KHO1 150314Z 19009KT 27/16 A302 RMK A01 T02740156  RH  048%=      5-min Rain = 0
KHO1 150315Z 20009KT 27/16 A302 RMK A01 T02730156  RH  049%=      5-min Rain = 0
KHO1 150316Z 20010KT 27/16 A302 RMK A01 T02720156  RH  049%=      5-min Rain = 0
KHO1 150317Z 19011KT 27/16 A302 RMK A01 T02720156  RH  049%=      5-min Rain = 0
KHO1 150318Z 19009KT 27/16 A302 RMK A01 T02720156  RH  049%=      5-min Rain = 0
KHO1 150319Z 19008KT 27/16 A302 RMK A01 T02720156  RH  049%=      5-min Rain = 0
KHO1 150320Z 19008KT 27/16 A302 RMK A01 T02710155  RH  049%=      5-min Rain = 0
KHO1 150321Z 19009KT 27/16 A302 RMK A01 T02710155  RH  049%=      5-min Rain = 0
KHO1 150322Z 19008KT 27/16 A302 RMK A01 T02710155  RH  049%=      5-min Rain = 0
KHO1 150323Z 19009KT 27/16 A302 RMK A01 T02710155  RH  049%=      5-min Rain = 0
KHO1 150324Z 19007KT 27/16 A302 RMK A01 T02700155  RH  049%=      5-min Rain = 0
KHO1 150325Z 19006KT 27/15 A302 RMK A01 T02700154  RH  049%=      5-min Rain = 0
KHO1 150326Z 20009KT 27/16 A302 RMK A01 T02700155  RH  049%=      5-min Rain = 0
KHO1 150327Z 19008KT 27/15 A302 RMK A01 T02700154  RH  049%=      5-min Rain = 0
KHO1 150328Z 19007KT 27/15 A302 RMK A01 T02700154  RH  049%=      5-min Rain = 0
KHO1 150329Z 19007KT 27/15 A302 RMK A01 T02690154  RH  049%=      5-min Rain = 0
KHO1 150330Z 19007KT 27/15 A302 RMK A01 T02690154  RH  049%=      5-min Rain = 0
KHO1 150331Z 20007KT 27/15 A302 RMK A01 T02690154  RH  049%=      5-min Rain = 0
KHO1 150332Z 20008KT 27/15 A302 RMK A01 T02690154  RH  049%=      5-min Rain = 0
KHO1 150333Z 19008KT 27/15 A302 RMK A01 T02690154  RH  049%=      5-min Rain = 0
KHO1 150334Z 19007KT 27/15 A302 RMK A01 T02690154  RH  049%=      5-min Rain = 0
KHO1 150335Z 19007KT 27/15 A302 RMK A01 T02680154  RH  050%=      5-min Rain = 0
KHO1 150336Z 19007KT 27/15 A302 RMK A01 T02680154  RH  049%=      5-min Rain = 0
KHO1 150337Z 19008KT 27/15 A302 RMK A01 T02680154  RH  050%=      5-min Rain = 0
KHO1 150338Z 19008KT 27/16 A302 RMK A01 T02680155  RH  050%=      5-min Rain = 0
KHO1 150339Z 19007KT 27/15 A302 RMK A01 T02680154  RH  050%=      5-min Rain = 0
KHO1 150340Z 19007KT 27/15 A302 RMK A01 T02670154  RH  050%=      5-min Rain = 0
KHO1 150341Z 19008KT 27/15 A302 RMK A01 T02670154  RH  050%=      5-min Rain = 0
KHO1 150342Z 19009KT 27/16 A302 RMK A01 T02670155  RH  050%=      5-min Rain = 0
KHO1 150343Z 19007KT 27/16 A302 RMK A01 T02670155  RH  050%=      5-min Rain = 0
KHO1 150344Z 19008KT 27/16 A302 RMK A01 T02670155  RH  050%=      5-min Rain = 0
KHO1 150345Z 19007KT 27/16 A302 RMK A01 T02670155  RH  050%=      5-min Rain = 0
KHO1 150346Z 19007KT 27/16 A302 RMK A01 T02660155  RH  050%=      5-min Rain = 0
KHO1 150347Z 19006KT 27/16 A302 RMK A01 T02660155  RH  050%=      5-min Rain = 0
KHO1 150348Z 19006KT 27/16 A302 RMK A01 T02660155  RH  050%=      5-min Rain = 0
KHO1 150349Z 19006KT 27/15 A302 RMK A01 T02650154  RH  051%=      5-min Rain = 0
KHO1 150350Z 19006KT 27/16 A302 RMK A01 T02650155  RH  051%=      5-min Rain = 0
KHO1 150351Z 19005KT 27/16 A302 RMK A01 T02650155  RH  051%=      5-min Rain = 0
KHO1 150352Z 19006KT 27/16 A302 RMK A01 T02650155  RH  051%=      5-min Rain = 0
KHO1 150353Z 19006KT 26/16 A302 RMK A01 T02640155  RH  051%=      5-min Rain = 0
KHO1 150354Z 19006KT 26/16 A302 RMK A01 T02640155  RH  051%=      5-min Rain = 0
KHO1 150355Z 18005KT 26/16 A302 RMK A01 T02640155  RH  051%=      5-min Rain = 0
KHO1 150356Z 19005KT 26/16 A302 RMK A01 T02640155  RH  051%=      5-min Rain = 0
KHO1 150357Z 19005KT 26/16 A302 RMK A01 T02630155  RH  051%=      5-min Rain = 0
KHO1 150358Z 19005KT 26/16 A302 RMK A01 T02630155  RH  051%=      5-min Rain = 0
KHO1 150359Z 19005KT 26/16 A302 RMK A01 T02630155  RH  051%=      5-min Rain = 0
KHO1 150400Z 19005KT 26/16 A302 RMK A01 T02630155  RH  051%=      5-min Rain = 0
KHO1 150401Z 19004KT 26/16 A302 RMK A01 T02620155  RH  051%=      5-min Rain = 0
KHO1 150402Z 19005KT 26/16 A302 RMK A01 T02620155  RH  052%=      5-min Rain = 0
KHO1 150403Z 19005KT 26/16 A302 RMK A01 T02620155  RH  052%=      5-min Rain = 0
KHO1 150404Z 19005KT 26/16 A302 RMK A01 T02620155  RH  052%=      5-min Rain = 0
KHO1 150405Z 18005KT 26/16 A302 RMK A01 T02620155  RH  052%=      5-min Rain = 0
KHO1 150406Z 19005KT 26/16 A302 RMK A01 T02610155  RH  052%=      5-min Rain = 0
KHO1 150407Z 18005KT 26/16 A302 RMK A01 T02610155  RH  052%=      5-min Rain = 0
KHO1 150408Z 18005KT 26/16 A302 RMK A01 T02610155  RH  052%=      5-min Rain = 0
KHO1 150409Z 19004KT 26/16 A302 RMK A01 T02610156  RH  052%=      5-min Rain = 0
KHO1 150410Z 18004KT 26/16 A302 RMK A01 T02610155  RH  052%=      5-min Rain = 0
KHO1 150411Z 18004KT 26/16 A302 RMK A01 T02610155  RH  052%=      5-min Rain = 0
KHO1 150412Z 19004KT 26/16 A302 RMK A01 T02610156  RH  052%=      5-min Rain = 0
KHO1 150413Z 19004KT 26/16 A302 RMK A01 T02600156  RH  052%=      5-min Rain = 0
KHO1 150414Z 19004KT 26/16 A302 RMK A01 T02600155  RH  052%=      5-min Rain = 0
KHO1 150415Z 19005KT 26/16 A302 RMK A01 T02600156  RH  053%=      5-min Rain = 0
KHO1 150416Z 19005KT 26/16 A302 RMK A01 T02590155  RH  053%=      5-min Rain = 0
KHO1 150417Z 19005KT 26/16 A302 RMK A01 T02590155  RH  053%=      5-min Rain = 0
KHO1 150418Z 19005KT 26/16 A302 RMK A01 T02580155  RH  053%=      5-min Rain = 0
KHO1 150419Z 19005KT 26/16 A3021 RMK A01 T02580155  RH  053%=      5-min Rain = 0
KHO1 150420Z 19004KT 26/16 A3021 RMK A01 T02570155  RH  053%=      5-min Rain = 0
KHO1 150421Z 19004KT 26/16 A302 RMK A01 T02570155  RH  053%=      5-min Rain = 0
KHO1 150422Z 19004KT 26/16 A3021 RMK A01 T02560155  RH  053%=      5-min Rain = 0
KHO1 150423Z 19004KT 26/16 A302 RMK A01 T02560155  RH  053%=      5-min Rain = 0
KHO1 150424Z 19004KT 26/16 A302 RMK A01 T02560155  RH  054%=      5-min Rain = 0
KHO1 150425Z 19004KT 26/16 A302 RMK A01 T02560155  RH  054%=      5-min Rain = 0
KHO1 150426Z 19004KT 26/15 A302 RMK A01 T02550154  RH  054%=      5-min Rain = 0
KHO1 150427Z 19004KT 26/15 A302 RMK A01 T02550154  RH  054%=      5-min Rain = 0
KHO1 150428Z 18004KT 26/16 A302 RMK A01 T02550155  RH  054%=      5-min Rain = 0
KHO1 150429Z 18004KT 26/16 A3021 RMK A01 T02550155  RH  054%=      5-min Rain = 0
KHO1 150430Z 19004KT 26/16 A3021 RMK A01 T02550155  RH  054%=      5-min Rain = 0
KHO1 150431Z 19004KT 26/16 A3021 RMK A01 T02550155  RH  054%=      5-min Rain = 0
KHO1 150432Z 20004KT 26/16 A3021 RMK A01 T02550155  RH  054%=      5-min Rain = 0
KHO1 150433Z 20004KT 26/15 A3021 RMK A01 T02550154  RH  054%=      5-min Rain = 0
KHO1 150434Z 19003KT 26/15 A3021 RMK A01 T02550154  RH  054%=      5-min Rain = 0
KHO1 150435Z 20003KT 25/15 A3021 RMK A01 T02540154  RH  054%=      5-min Rain = 0
KHO1 150436Z 19003KT 25/15 A302 RMK A01 T02540154  RH  054%=      5-min Rain = 0
KHO1 150437Z 19003KT 25/15 A302 RMK A01 T02540154  RH  054%=      5-min Rain = 0
KHO1 150438Z 19004KT 25/15 A302 RMK A01 T02540154  RH  054%=      5-min Rain = 0
KHO1 150439Z 19004KT 25/15 A302 RMK A01 T02530154  RH  054%=      5-min Rain = 0
KHO1 150440Z 19004KT 25/15 A302 RMK A01 T02530154  RH  054%=      5-min Rain = 0
KHO1 150441Z 19004KT 25/15 A3021 RMK A01 T02530154  RH  054%=      5-min Rain = 0
KHO1 150442Z 19004KT 25/15 A3021 RMK A01 T02520154  RH  054%=      5-min Rain = 0
KHO1 150443Z 19004KT 25/15 A3021 RMK A01 T02520154  RH  054%=      5-min Rain = 0
KHO1 150444Z 19003KT 25/15 A3021 RMK A01 T02520154  RH  054%=      5-min Rain = 0
KHO1 150445Z 19003KT 25/15 A3021 RMK A01 T02520154  RH  054%=      5-min Rain = 0
KHO1 150446Z 19003KT 25/15 A3021 RMK A01 T02520153  RH  054%=      5-min Rain = 0
KHO1 150447Z 19003KT 25/15 A3021 RMK A01 T02520153  RH  054%=      5-min Rain = 0
KHO1 150448Z 19004KT 25/15 A3021 RMK A01 T02520153  RH  054%=      5-min Rain = 0
KHO1 150449Z 19004KT 25/15 A3021 RMK A01 T02520154  RH  054%=      5-min Rain = 0
KHO1 150450Z 19004KT 25/15 A3021 RMK A01 T02520154  RH  054%=      5-min Rain = 0
KHO1 150451Z 19004KT 25/15 A3021 RMK A01 T02520154  RH  055%=      5-min Rain = 0
KHO1 150452Z 19004KT 25/15 A3021 RMK A01 T02520154  RH  055%=      5-min Rain = 0
KHO1 150453Z 19004KT 25/15 A3021 RMK A01 T02520154  RH  054%=      5-min Rain = 0
KHO1 150454Z 20004KT 25/15 A3021 RMK A01 T02520154  RH  054%=      5-min Rain = 0
KHO1 150455Z 20003KT 25/15 A3021 RMK A01 T02520154  RH  054%=      5-min Rain = 0
KHO1 150456Z 20004KT 25/15 A3021 RMK A01 T02520154  RH  054%=      5-min Rain = 0
KHO1 150457Z 20004KT 25/15 A3021 RMK A01 T02520154  RH  055%=      5-min Rain = 0
KHO1 150458Z 21004KT 25/16 A3021 RMK A01 T02520155  RH  055%=      5-min Rain = 0
KHO1 150459Z 21004KT 25/16 A3022 RMK A01 T02530155  RH  055%=      5-min Rain = 0

Page generated in 0.1224 seconds.